<?xml version="1.0" encoding="UTF-8" standalone="no" ?>
<gpx xmlns="http://www.topografix.com/GPX/1/1" xmlns:xsi="http://www.w3.org/2001/XMLSchema-instance" xsi:schemaLocation="http://www.topografix.com/GPX/1/1 http://www.topografix.com/GPX/1/1/gpx.xsd" version="1.1" creator="VisuGPX - https://www.visugpx.com">
  <metadata>
    <name>Trail 25km Raismes</name>
  </metadata>
  <trk>
    <name><![CDATA[Trail 25km Raismes_1]]></name>
    <trkseg>
      <trkpt lat="50.42398" lon="3.46969">
        <ele>45.799926</ele>
        <time>2011-06-26T06:33:41Z</time>
      </trkpt>
      <trkpt lat="50.42395" lon="3.46991">
        <ele>43.396606</ele>
        <time>2011-06-26T06:33:46Z</time>
      </trkpt>
      <trkpt lat="50.42389" lon="3.47018">
        <ele>42.916015</ele>
        <time>2011-06-26T06:33:51Z</time>
      </trkpt>
      <trkpt lat="50.42381" lon="3.47053">
        <ele>41.954711</ele>
        <time>2011-06-26T06:33:56Z</time>
      </trkpt>
      <trkpt lat="50.42379" lon="3.4706">
        <ele>41.954711</ele>
        <time>2011-06-26T06:33:57Z</time>
      </trkpt>
      <trkpt lat="50.42373" lon="3.47092">
        <ele>39.070678</ele>
        <time>2011-06-26T06:34:01Z</time>
      </trkpt>
      <trkpt lat="50.42369" lon="3.47108">
        <ele>40.032104</ele>
        <time>2011-06-26T06:34:03Z</time>
      </trkpt>
      <trkpt lat="50.42366" lon="3.47133">
        <ele>42.916015</ele>
        <time>2011-06-26T06:34:06Z</time>
      </trkpt>
      <trkpt lat="50.42357" lon="3.47166">
        <ele>40.032104</ele>
        <time>2011-06-26T06:34:10Z</time>
      </trkpt>
      <trkpt lat="50.42342" lon="3.4721">
        <ele>41.473999</ele>
        <time>2011-06-26T06:34:15Z</time>
      </trkpt>
      <trkpt lat="50.42333" lon="3.4724">
        <ele>49.16455</ele>
        <time>2011-06-26T06:34:18Z</time>
      </trkpt>
      <trkpt lat="50.42321" lon="3.47284">
        <ele>57.816528</ele>
        <time>2011-06-26T06:34:23Z</time>
      </trkpt>
      <trkpt lat="50.42309" lon="3.47326">
        <ele>64.065063</ele>
        <time>2011-06-26T06:34:29Z</time>
      </trkpt>
      <trkpt lat="50.42306" lon="3.47344">
        <ele>66.468261</ele>
        <time>2011-06-26T06:34:32Z</time>
      </trkpt>
      <trkpt lat="50.42303" lon="3.47361">
        <ele>67.910278</ele>
        <time>2011-06-26T06:34:35Z</time>
      </trkpt>
      <trkpt lat="50.42301" lon="3.47389">
        <ele>70.794189</ele>
        <time>2011-06-26T06:34:41Z</time>
      </trkpt>
      <trkpt lat="50.42291" lon="3.47422">
        <ele>70.313476</ele>
        <time>2011-06-26T06:34:47Z</time>
      </trkpt>
      <trkpt lat="50.42289" lon="3.47434">
        <ele>64.545654</ele>
        <time>2011-06-26T06:34:49Z</time>
      </trkpt>
      <trkpt lat="50.4229" lon="3.47458">
        <ele>56.855102</ele>
        <time>2011-06-26T06:34:54Z</time>
      </trkpt>
      <trkpt lat="50.42293" lon="3.4747">
        <ele>55.413085</ele>
        <time>2011-06-26T06:34:56Z</time>
      </trkpt>
      <trkpt lat="50.42301" lon="3.47523">
        <ele>39.070678</ele>
        <time>2011-06-26T06:35:02Z</time>
      </trkpt>
      <trkpt lat="50.42302" lon="3.47538">
        <ele>37.148071</ele>
        <time>2011-06-26T06:35:04Z</time>
      </trkpt>
      <trkpt lat="50.42308" lon="3.47557">
        <ele>34.744873</ele>
        <time>2011-06-26T06:35:09Z</time>
      </trkpt>
      <trkpt lat="50.42311" lon="3.47577">
        <ele>27.534912</ele>
        <time>2011-06-26T06:35:14Z</time>
      </trkpt>
      <trkpt lat="50.42314" lon="3.47594">
        <ele>25.131713</ele>
        <time>2011-06-26T06:35:18Z</time>
      </trkpt>
      <trkpt lat="50.42323" lon="3.47622">
        <ele>24.170288</ele>
        <time>2011-06-26T06:35:23Z</time>
      </trkpt>
      <trkpt lat="50.42337" lon="3.47644">
        <ele>26.092895</ele>
        <time>2011-06-26T06:35:28Z</time>
      </trkpt>
      <trkpt lat="50.42354" lon="3.47661">
        <ele>29.93811</ele>
        <time>2011-06-26T06:35:32Z</time>
      </trkpt>
      <trkpt lat="50.42367" lon="3.47673">
        <ele>30.418823</ele>
        <time>2011-06-26T06:35:35Z</time>
      </trkpt>
      <trkpt lat="50.42384" lon="3.47694">
        <ele>30.418823</ele>
        <time>2011-06-26T06:35:40Z</time>
      </trkpt>
      <trkpt lat="50.42389" lon="3.47706">
        <ele>30.899536</ele>
        <time>2011-06-26T06:35:42Z</time>
      </trkpt>
      <trkpt lat="50.42408" lon="3.47735">
        <ele>32.822265</ele>
        <time>2011-06-26T06:35:48Z</time>
      </trkpt>
      <trkpt lat="50.4243" lon="3.47772">
        <ele>37.628662</ele>
        <time>2011-06-26T06:35:54Z</time>
      </trkpt>
      <trkpt lat="50.4245" lon="3.47791">
        <ele>41.473999</ele>
        <time>2011-06-26T06:35:58Z</time>
      </trkpt>
      <trkpt lat="50.42472" lon="3.47811">
        <ele>38.590087</ele>
        <time>2011-06-26T06:36:02Z</time>
      </trkpt>
      <trkpt lat="50.42484" lon="3.4782">
        <ele>38.590087</ele>
        <time>2011-06-26T06:36:04Z</time>
      </trkpt>
      <trkpt lat="50.42493" lon="3.47829">
        <ele>33.302856</ele>
        <time>2011-06-26T06:36:06Z</time>
      </trkpt>
      <trkpt lat="50.42508" lon="3.47852">
        <ele>31.380127</ele>
        <time>2011-06-26T06:36:10Z</time>
      </trkpt>
      <trkpt lat="50.42525" lon="3.47871">
        <ele>30.418823</ele>
        <time>2011-06-26T06:36:15Z</time>
      </trkpt>
      <trkpt lat="50.4253" lon="3.47873">
        <ele>30.418823</ele>
        <time>2011-06-26T06:36:16Z</time>
      </trkpt>
      <trkpt lat="50.42545" lon="3.47883">
        <ele>28.976928</ele>
        <time>2011-06-26T06:36:19Z</time>
      </trkpt>
      <trkpt lat="50.42564" lon="3.47892">
        <ele>26.573608</ele>
        <time>2011-06-26T06:36:23Z</time>
      </trkpt>
      <trkpt lat="50.42573" lon="3.47915">
        <ele>21.766967</ele>
        <time>2011-06-26T06:36:27Z</time>
      </trkpt>
      <trkpt lat="50.42566" lon="3.47932">
        <ele>21.286377</ele>
        <time>2011-06-26T06:36:30Z</time>
      </trkpt>
      <trkpt lat="50.42564" lon="3.47944">
        <ele>22.728271</ele>
        <time>2011-06-26T06:36:32Z</time>
      </trkpt>
      <trkpt lat="50.4256" lon="3.47967">
        <ele>28.496215</ele>
        <time>2011-06-26T06:36:35Z</time>
      </trkpt>
      <trkpt lat="50.42561" lon="3.48006">
        <ele>28.496215</ele>
        <time>2011-06-26T06:36:40Z</time>
      </trkpt>
      <trkpt lat="50.42561" lon="3.48021">
        <ele>28.496215</ele>
        <time>2011-06-26T06:36:44Z</time>
      </trkpt>
      <trkpt lat="50.42562" lon="3.48026">
        <ele>26.573608</ele>
        <time>2011-06-26T06:36:46Z</time>
      </trkpt>
      <trkpt lat="50.42551" lon="3.48036">
        <ele>21.286377</ele>
        <time>2011-06-26T06:36:51Z</time>
      </trkpt>
      <trkpt lat="50.42546" lon="3.48053">
        <ele>17.921752</ele>
        <time>2011-06-26T06:36:55Z</time>
      </trkpt>
      <trkpt lat="50.42543" lon="3.48058">
        <ele>17.921752</ele>
        <time>2011-06-26T06:36:56Z</time>
      </trkpt>
      <trkpt lat="50.42536" lon="3.48081">
        <ele>17.441162</ele>
        <time>2011-06-26T06:37:02Z</time>
      </trkpt>
      <trkpt lat="50.4253" lon="3.48093">
        <ele>18.883056</ele>
        <time>2011-06-26T06:37:07Z</time>
      </trkpt>
      <trkpt lat="50.42529" lon="3.48095">
        <ele>19.84436</ele>
        <time>2011-06-26T06:37:08Z</time>
      </trkpt>
      <trkpt lat="50.42525" lon="3.48101">
        <ele>24.651001</ele>
        <time>2011-06-26T06:37:16Z</time>
      </trkpt>
      <trkpt lat="50.42524" lon="3.48102">
        <ele>25.131713</ele>
        <time>2011-06-26T06:37:18Z</time>
      </trkpt>
      <trkpt lat="50.42527" lon="3.48102">
        <ele>15.518432</ele>
        <time>2011-06-26T06:37:57Z</time>
      </trkpt>
      <trkpt lat="50.42527" lon="3.48103">
        <ele>15.518432</ele>
        <time>2011-06-26T06:37:58Z</time>
      </trkpt>
      <trkpt lat="50.42533" lon="3.48107">
        <ele>26.092895</ele>
        <time>2011-06-26T06:40:33Z</time>
      </trkpt>
      <trkpt lat="50.42534" lon="3.48107">
        <ele>26.573608</ele>
        <time>2011-06-26T06:40:34Z</time>
      </trkpt>
      <trkpt lat="50.42528" lon="3.48106">
        <ele>22.247558</ele>
        <time>2011-06-26T06:40:58Z</time>
      </trkpt>
      <trkpt lat="50.42529" lon="3.48103">
        <ele>29.457519</ele>
        <time>2011-06-26T06:41:10Z</time>
      </trkpt>
      <trkpt lat="50.42533" lon="3.48102">
        <ele>34.744873</ele>
        <time>2011-06-26T06:41:18Z</time>
      </trkpt>
      <trkpt lat="50.42518" lon="3.48117">
        <ele>26.573608</ele>
        <time>2011-06-26T06:43:35Z</time>
      </trkpt>
      <trkpt lat="50.42512" lon="3.48141">
        <ele>25.612304</ele>
        <time>2011-06-26T06:43:40Z</time>
      </trkpt>
      <trkpt lat="50.42505" lon="3.48164">
        <ele>28.496215</ele>
        <time>2011-06-26T06:43:45Z</time>
      </trkpt>
      <trkpt lat="50.42508" lon="3.48182">
        <ele>31.380127</ele>
        <time>2011-06-26T06:43:50Z</time>
      </trkpt>
      <trkpt lat="50.42521" lon="3.48182">
        <ele>31.860717</ele>
        <time>2011-06-26T06:43:53Z</time>
      </trkpt>
      <trkpt lat="50.42535" lon="3.48194">
        <ele>29.93811</ele>
        <time>2011-06-26T06:43:56Z</time>
      </trkpt>
      <trkpt lat="50.42541" lon="3.48219">
        <ele>29.457519</ele>
        <time>2011-06-26T06:44:00Z</time>
      </trkpt>
      <trkpt lat="50.42543" lon="3.48232">
        <ele>28.496215</ele>
        <time>2011-06-26T06:44:02Z</time>
      </trkpt>
      <trkpt lat="50.42544" lon="3.48265">
        <ele>28.496215</ele>
        <time>2011-06-26T06:44:07Z</time>
      </trkpt>
      <trkpt lat="50.42542" lon="3.48297">
        <ele>29.457519</ele>
        <time>2011-06-26T06:44:12Z</time>
      </trkpt>
      <trkpt lat="50.42536" lon="3.48325">
        <ele>26.573608</ele>
        <time>2011-06-26T06:44:16Z</time>
      </trkpt>
      <trkpt lat="50.42529" lon="3.48351">
        <ele>27.534912</ele>
        <time>2011-06-26T06:44:20Z</time>
      </trkpt>
      <trkpt lat="50.42526" lon="3.48362">
        <ele>29.457519</ele>
        <time>2011-06-26T06:44:22Z</time>
      </trkpt>
      <trkpt lat="50.42522" lon="3.48376">
        <ele>31.380127</ele>
        <time>2011-06-26T06:44:24Z</time>
      </trkpt>
      <trkpt lat="50.42518" lon="3.48391">
        <ele>34.26416</ele>
        <time>2011-06-26T06:44:26Z</time>
      </trkpt>
      <trkpt lat="50.42514" lon="3.48406">
        <ele>35.225463</ele>
        <time>2011-06-26T06:44:28Z</time>
      </trkpt>
      <trkpt lat="50.42511" lon="3.48446">
        <ele>36.186767</ele>
        <time>2011-06-26T06:44:33Z</time>
      </trkpt>
      <trkpt lat="50.4251" lon="3.48462">
        <ele>40.032104</ele>
        <time>2011-06-26T06:44:35Z</time>
      </trkpt>
      <trkpt lat="50.42506" lon="3.48487">
        <ele>43.396606</ele>
        <time>2011-06-26T06:44:38Z</time>
      </trkpt>
      <trkpt lat="50.425" lon="3.4851">
        <ele>46.280639</ele>
        <time>2011-06-26T06:44:41Z</time>
      </trkpt>
      <trkpt lat="50.42487" lon="3.48549">
        <ele>50.125976</ele>
        <time>2011-06-26T06:44:46Z</time>
      </trkpt>
      <trkpt lat="50.42483" lon="3.48563">
        <ele>51.087158</ele>
        <time>2011-06-26T06:44:48Z</time>
      </trkpt>
      <trkpt lat="50.42467" lon="3.48605">
        <ele>53.490478</ele>
        <time>2011-06-26T06:44:54Z</time>
      </trkpt>
      <trkpt lat="50.42464" lon="3.48611">
        <ele>53.971191</ele>
        <time>2011-06-26T06:44:55Z</time>
      </trkpt>
      <trkpt lat="50.42461" lon="3.48646">
        <ele>53.009765</ele>
        <time>2011-06-26T06:44:59Z</time>
      </trkpt>
      <trkpt lat="50.42474" lon="3.48701">
        <ele>42.435424</ele>
        <time>2011-06-26T06:45:05Z</time>
      </trkpt>
      <trkpt lat="50.42483" lon="3.48738">
        <ele>39.551269</ele>
        <time>2011-06-26T06:45:09Z</time>
      </trkpt>
      <trkpt lat="50.42484" lon="3.48778">
        <ele>32.341552</ele>
        <time>2011-06-26T06:45:13Z</time>
      </trkpt>
      <trkpt lat="50.42482" lon="3.48801">
        <ele>34.26416</ele>
        <time>2011-06-26T06:45:16Z</time>
      </trkpt>
      <trkpt lat="50.42464" lon="3.48836">
        <ele>43.877319</ele>
        <time>2011-06-26T06:45:21Z</time>
      </trkpt>
      <trkpt lat="50.42458" lon="3.48851">
        <ele>42.435424</ele>
        <time>2011-06-26T06:45:23Z</time>
      </trkpt>
      <trkpt lat="50.42447" lon="3.48874">
        <ele>41.954711</ele>
        <time>2011-06-26T06:45:26Z</time>
      </trkpt>
      <trkpt lat="50.4243" lon="3.48915">
        <ele>40.993408</ele>
        <time>2011-06-26T06:45:31Z</time>
      </trkpt>
      <trkpt lat="50.42406" lon="3.48952">
        <ele>46.76123</ele>
        <time>2011-06-26T06:45:37Z</time>
      </trkpt>
      <trkpt lat="50.42398" lon="3.48965">
        <ele>49.16455</ele>
        <time>2011-06-26T06:45:39Z</time>
      </trkpt>
      <trkpt lat="50.42381" lon="3.48996">
        <ele>47.722534</ele>
        <time>2011-06-26T06:45:43Z</time>
      </trkpt>
      <trkpt lat="50.42364" lon="3.49023">
        <ele>41.954711</ele>
        <time>2011-06-26T06:45:47Z</time>
      </trkpt>
      <trkpt lat="50.42338" lon="3.49053">
        <ele>42.435424</ele>
        <time>2011-06-26T06:45:53Z</time>
      </trkpt>
      <trkpt lat="50.42326" lon="3.49069">
        <ele>40.993408</ele>
        <time>2011-06-26T06:45:56Z</time>
      </trkpt>
      <trkpt lat="50.42318" lon="3.49082">
        <ele>42.916015</ele>
        <time>2011-06-26T06:45:58Z</time>
      </trkpt>
      <trkpt lat="50.42293" lon="3.49129">
        <ele>40.993408</ele>
        <time>2011-06-26T06:46:05Z</time>
      </trkpt>
      <trkpt lat="50.4228" lon="3.49159">
        <ele>45.799926</ele>
        <time>2011-06-26T06:46:09Z</time>
      </trkpt>
      <trkpt lat="50.42261" lon="3.49202">
        <ele>46.280639</ele>
        <time>2011-06-26T06:46:15Z</time>
      </trkpt>
      <trkpt lat="50.42258" lon="3.49209">
        <ele>46.76123</ele>
        <time>2011-06-26T06:46:16Z</time>
      </trkpt>
      <trkpt lat="50.42246" lon="3.4923">
        <ele>47.722534</ele>
        <time>2011-06-26T06:46:19Z</time>
      </trkpt>
      <trkpt lat="50.42255" lon="3.49257">
        <ele>48.203369</ele>
        <time>2011-06-26T06:46:23Z</time>
      </trkpt>
      <trkpt lat="50.42275" lon="3.49278">
        <ele>44.358032</ele>
        <time>2011-06-26T06:46:27Z</time>
      </trkpt>
      <trkpt lat="50.42297" lon="3.49311">
        <ele>40.512817</ele>
        <time>2011-06-26T06:46:32Z</time>
      </trkpt>
      <trkpt lat="50.42311" lon="3.49329">
        <ele>38.590087</ele>
        <time>2011-06-26T06:46:35Z</time>
      </trkpt>
      <trkpt lat="50.42319" lon="3.49346">
        <ele>35.706054</ele>
        <time>2011-06-26T06:46:38Z</time>
      </trkpt>
      <trkpt lat="50.42316" lon="3.49372">
        <ele>32.822265</ele>
        <time>2011-06-26T06:46:42Z</time>
      </trkpt>
      <trkpt lat="50.42312" lon="3.49399">
        <ele>33.783447</ele>
        <time>2011-06-26T06:46:45Z</time>
      </trkpt>
      <trkpt lat="50.42305" lon="3.49452">
        <ele>33.783447</ele>
        <time>2011-06-26T06:46:51Z</time>
      </trkpt>
      <trkpt lat="50.42298" lon="3.49498">
        <ele>36.186767</ele>
        <time>2011-06-26T06:46:56Z</time>
      </trkpt>
      <trkpt lat="50.4229" lon="3.49547">
        <ele>40.993408</ele>
        <time>2011-06-26T06:47:01Z</time>
      </trkpt>
      <trkpt lat="50.42277" lon="3.49598">
        <ele>44.838623</ele>
        <time>2011-06-26T06:47:07Z</time>
      </trkpt>
      <trkpt lat="50.42268" lon="3.49635">
        <ele>47.241821</ele>
        <time>2011-06-26T06:47:11Z</time>
      </trkpt>
      <trkpt lat="50.42265" lon="3.49676">
        <ele>46.280639</ele>
        <time>2011-06-26T06:47:16Z</time>
      </trkpt>
      <trkpt lat="50.4227" lon="3.49738">
        <ele>43.396606</ele>
        <time>2011-06-26T06:47:23Z</time>
      </trkpt>
      <trkpt lat="50.4227" lon="3.49766">
        <ele>39.070678</ele>
        <time>2011-06-26T06:47:26Z</time>
      </trkpt>
      <trkpt lat="50.42276" lon="3.49812">
        <ele>41.473999</ele>
        <time>2011-06-26T06:47:31Z</time>
      </trkpt>
      <trkpt lat="50.42277" lon="3.49821">
        <ele>41.473999</ele>
        <time>2011-06-26T06:47:32Z</time>
      </trkpt>
      <trkpt lat="50.42291" lon="3.49826">
        <ele>39.551269</ele>
        <time>2011-06-26T06:47:35Z</time>
      </trkpt>
      <trkpt lat="50.42309" lon="3.49818">
        <ele>36.186767</ele>
        <time>2011-06-26T06:47:39Z</time>
      </trkpt>
      <trkpt lat="50.42315" lon="3.49816">
        <ele>35.706054</ele>
        <time>2011-06-26T06:47:40Z</time>
      </trkpt>
      <trkpt lat="50.42361" lon="3.49796">
        <ele>31.860717</ele>
        <time>2011-06-26T06:47:48Z</time>
      </trkpt>
      <trkpt lat="50.42398" lon="3.49824">
        <ele>33.1</ele>
      </trkpt>
      <trkpt lat="50.42458" lon="3.50062">
        <ele>34.6</ele>
      </trkpt>
      <trkpt lat="50.42584" lon="3.50241">
        <ele>33.4</ele>
      </trkpt>
      <trkpt lat="50.42758" lon="3.50332">
        <ele>30.4</ele>
      </trkpt>
      <trkpt lat="50.42818" lon="3.50452">
        <ele>31.6</ele>
      </trkpt>
      <trkpt lat="50.42916" lon="3.50797">
        <ele>35</ele>
      </trkpt>
      <trkpt lat="50.4298" lon="3.50908">
        <ele>33.8</ele>
      </trkpt>
      <trkpt lat="50.42847" lon="3.50973">
        <ele>41.1</ele>
      </trkpt>
      <trkpt lat="50.42634" lon="3.51067">
        <ele>43.8</ele>
      </trkpt>
      <trkpt lat="50.42626" lon="3.51069">
        <ele>25.131713</ele>
        <time>2011-06-26T07:06:39Z</time>
      </trkpt>
      <trkpt lat="50.42614" lon="3.51073">
        <ele>24.170288</ele>
        <time>2011-06-26T07:06:42Z</time>
      </trkpt>
      <trkpt lat="50.42597" lon="3.51084">
        <ele>21.766967</ele>
        <time>2011-06-26T07:06:46Z</time>
      </trkpt>
      <trkpt lat="50.42588" lon="3.51088">
        <ele>18.402343</ele>
        <time>2011-06-26T07:06:48Z</time>
      </trkpt>
      <trkpt lat="50.42568" lon="3.51095">
        <ele>14.557006</ele>
        <time>2011-06-26T07:06:52Z</time>
      </trkpt>
      <trkpt lat="50.42547" lon="3.51102">
        <ele>10.711792</ele>
        <time>2011-06-26T07:06:56Z</time>
      </trkpt>
      <trkpt lat="50.42536" lon="3.51108">
        <ele>8.7891846</ele>
        <time>2011-06-26T07:06:58Z</time>
      </trkpt>
      <trkpt lat="50.42509" lon="3.51117">
        <ele>9.2698975</ele>
        <time>2011-06-26T07:07:03Z</time>
      </trkpt>
      <trkpt lat="50.42498" lon="3.51123">
        <ele>8.7891846</ele>
        <time>2011-06-26T07:07:05Z</time>
      </trkpt>
      <trkpt lat="50.42487" lon="3.51128">
        <ele>8.3085938</ele>
        <time>2011-06-26T07:07:07Z</time>
      </trkpt>
      <trkpt lat="50.42478" lon="3.51131">
        <ele>8.3085938</ele>
        <time>2011-06-26T07:07:09Z</time>
      </trkpt>
      <trkpt lat="50.42457" lon="3.5114">
        <ele>5.9052734</ele>
        <time>2011-06-26T07:07:13Z</time>
      </trkpt>
      <trkpt lat="50.42428" lon="3.51151">
        <ele>3.0212402</ele>
        <time>2011-06-26T07:07:19Z</time>
      </trkpt>
      <trkpt lat="50.42414" lon="3.51157">
        <ele>2.0600586</ele>
        <time>2011-06-26T07:07:23Z</time>
      </trkpt>
      <trkpt lat="50.42384" lon="3.5117">
        <ele>5.4245605</ele>
        <time>2011-06-26T07:07:30Z</time>
      </trkpt>
      <trkpt lat="50.42352" lon="3.51184">
        <ele>3.982666</ele>
        <time>2011-06-26T07:07:36Z</time>
      </trkpt>
      <trkpt lat="50.42342" lon="3.51187">
        <ele>3.5019531</ele>
        <time>2011-06-26T07:07:38Z</time>
      </trkpt>
      <trkpt lat="50.4232" lon="3.51195">
        <ele>2.5406494</ele>
        <time>2011-06-26T07:07:42Z</time>
      </trkpt>
      <trkpt lat="50.42297" lon="3.51208">
        <ele>2.5406494</ele>
        <time>2011-06-26T07:07:46Z</time>
      </trkpt>
      <trkpt lat="50.42251" lon="3.51228">
        <ele>3.5019531</ele>
        <time>2011-06-26T07:07:53Z</time>
      </trkpt>
      <trkpt lat="50.42219" lon="3.51243">
        <ele>1.5793457</ele>
        <time>2011-06-26T07:07:58Z</time>
      </trkpt>
      <trkpt lat="50.42195" lon="3.51251">
        <ele>0.618042</ele>
        <time>2011-06-26T07:08:02Z</time>
      </trkpt>
      <trkpt lat="50.4215" lon="3.51272">
        <ele>-1.785278</ele>
        <time>2011-06-26T07:08:09Z</time>
      </trkpt>
      <trkpt lat="50.42124" lon="3.51282">
        <ele>-4.188598</ele>
        <time>2011-06-26T07:08:13Z</time>
      </trkpt>
      <trkpt lat="50.42076" lon="3.51301">
        <ele>-9.956543</ele>
        <time>2011-06-26T07:08:20Z</time>
      </trkpt>
      <trkpt lat="50.42049" lon="3.51312">
        <ele>-9.956543</ele>
        <time>2011-06-26T07:08:25Z</time>
      </trkpt>
      <trkpt lat="50.42013" lon="3.51328">
        <ele>-10.43725</ele>
        <time>2011-06-26T07:08:32Z</time>
      </trkpt>
      <trkpt lat="50.41981" lon="3.51341">
        <ele>-9.47583</ele>
        <time>2011-06-26T07:08:38Z</time>
      </trkpt>
      <trkpt lat="50.41948" lon="3.51354">
        <ele>-10.43725</ele>
        <time>2011-06-26T07:08:44Z</time>
      </trkpt>
      <trkpt lat="50.41937" lon="3.51358">
        <ele>-9.47583</ele>
        <time>2011-06-26T07:08:46Z</time>
      </trkpt>
      <trkpt lat="50.41906" lon="3.5137">
        <ele>-5.149902</ele>
        <time>2011-06-26T07:08:52Z</time>
      </trkpt>
      <trkpt lat="50.4188" lon="3.51382">
        <ele>-2.746704</ele>
        <time>2011-06-26T07:08:57Z</time>
      </trkpt>
      <trkpt lat="50.41864" lon="3.51389">
        <ele>-2.265991</ele>
        <time>2011-06-26T07:09:00Z</time>
      </trkpt>
      <trkpt lat="50.41838" lon="3.51399">
        <ele>-1.304687</ele>
        <time>2011-06-26T07:09:05Z</time>
      </trkpt>
      <trkpt lat="50.41819" lon="3.51409">
        <ele>0.618042</ele>
        <time>2011-06-26T07:09:09Z</time>
      </trkpt>
      <trkpt lat="50.41808" lon="3.51417">
        <ele>9.7506104</ele>
        <time>2011-06-26T07:09:14Z</time>
      </trkpt>
      <trkpt lat="50.41798" lon="3.51421">
        <ele>10.231201</ele>
        <time>2011-06-26T07:09:19Z</time>
      </trkpt>
      <trkpt lat="50.41793" lon="3.51422">
        <ele>9.7506104</ele>
        <time>2011-06-26T07:09:21Z</time>
      </trkpt>
      <trkpt lat="50.41777" lon="3.51428">
        <ele>9.7506104</ele>
        <time>2011-06-26T07:09:26Z</time>
      </trkpt>
      <trkpt lat="50.4176" lon="3.51436">
        <ele>11.192504</ele>
        <time>2011-06-26T07:09:32Z</time>
      </trkpt>
      <trkpt lat="50.41746" lon="3.51439">
        <ele>6.8664551</ele>
        <time>2011-06-26T07:09:37Z</time>
      </trkpt>
      <trkpt lat="50.41742" lon="3.51441">
        <ele>7.347168</ele>
        <time>2011-06-26T07:09:39Z</time>
      </trkpt>
      <trkpt lat="50.41743" lon="3.51456">
        <ele>16.960449</ele>
        <time>2011-06-26T07:09:43Z</time>
      </trkpt>
      <trkpt lat="50.41754" lon="3.51485">
        <ele>23.689575</ele>
        <time>2011-06-26T07:09:48Z</time>
      </trkpt>
      <trkpt lat="50.41771" lon="3.51532">
        <ele>29.457519</ele>
        <time>2011-06-26T07:09:54Z</time>
      </trkpt>
      <trkpt lat="50.41788" lon="3.51586">
        <ele>35.706054</ele>
        <time>2011-06-26T07:10:01Z</time>
      </trkpt>
      <trkpt lat="50.418" lon="3.51628">
        <ele>39.070678</ele>
        <time>2011-06-26T07:10:06Z</time>
      </trkpt>
      <trkpt lat="50.41814" lon="3.51678">
        <ele>41.473999</ele>
        <time>2011-06-26T07:10:12Z</time>
      </trkpt>
      <trkpt lat="50.41817" lon="3.51696">
        <ele>42.916015</ele>
        <time>2011-06-26T07:10:14Z</time>
      </trkpt>
      <trkpt lat="50.4183" lon="3.51758">
        <ele>44.838623</ele>
        <time>2011-06-26T07:10:21Z</time>
      </trkpt>
      <trkpt lat="50.41844" lon="3.51805">
        <ele>46.76123</ele>
        <time>2011-06-26T07:10:27Z</time>
      </trkpt>
      <trkpt lat="50.41856" lon="3.51875">
        <ele>44.358032</ele>
        <time>2011-06-26T07:10:35Z</time>
      </trkpt>
      <trkpt lat="50.41857" lon="3.51884">
        <ele>44.358032</ele>
        <time>2011-06-26T07:10:36Z</time>
      </trkpt>
      <trkpt lat="50.4187" lon="3.51936">
        <ele>42.435424</ele>
        <time>2011-06-26T07:10:42Z</time>
      </trkpt>
      <trkpt lat="50.41887" lon="3.51994">
        <ele>42.916015</ele>
        <time>2011-06-26T07:10:49Z</time>
      </trkpt>
      <trkpt lat="50.419" lon="3.52038">
        <ele>45.319213</ele>
        <time>2011-06-26T07:10:55Z</time>
      </trkpt>
      <trkpt lat="50.41908" lon="3.52066">
        <ele>46.76123</ele>
        <time>2011-06-26T07:11:00Z</time>
      </trkpt>
      <trkpt lat="50.41911" lon="3.52083">
        <ele>49.645263</ele>
        <time>2011-06-26T07:11:03Z</time>
      </trkpt>
      <trkpt lat="50.41923" lon="3.52124">
        <ele>51.087158</ele>
        <time>2011-06-26T07:11:11Z</time>
      </trkpt>
      <trkpt lat="50.4193" lon="3.5215">
        <ele>53.971191</ele>
        <time>2011-06-26T07:11:16Z</time>
      </trkpt>
      <trkpt lat="50.41934" lon="3.52172">
        <ele>50.125976</ele>
        <time>2011-06-26T07:11:21Z</time>
      </trkpt>
      <trkpt lat="50.41935" lon="3.52178">
        <ele>47.722534</ele>
        <time>2011-06-26T07:11:23Z</time>
      </trkpt>
      <trkpt lat="50.41936" lon="3.52189">
        <ele>50.125976</ele>
        <time>2011-06-26T07:11:26Z</time>
      </trkpt>
      <trkpt lat="50.41941" lon="3.52214">
        <ele>53.971191</ele>
        <time>2011-06-26T07:11:33Z</time>
      </trkpt>
      <trkpt lat="50.41946" lon="3.52234">
        <ele>53.490478</ele>
        <time>2011-06-26T07:11:38Z</time>
      </trkpt>
      <trkpt lat="50.41953" lon="3.52262">
        <ele>49.16455</ele>
        <time>2011-06-26T07:11:44Z</time>
      </trkpt>
      <trkpt lat="50.41958" lon="3.52286">
        <ele>48.68396</ele>
        <time>2011-06-26T07:11:48Z</time>
      </trkpt>
      <trkpt lat="50.41968" lon="3.52328">
        <ele>50.125976</ele>
        <time>2011-06-26T07:11:54Z</time>
      </trkpt>
      <trkpt lat="50.41972" lon="3.52344">
        <ele>52.048584</ele>
        <time>2011-06-26T07:11:56Z</time>
      </trkpt>
      <trkpt lat="50.41986" lon="3.52404">
        <ele>55.413085</ele>
        <time>2011-06-26T07:12:03Z</time>
      </trkpt>
      <trkpt lat="50.41991" lon="3.52422">
        <ele>56.374511</ele>
        <time>2011-06-26T07:12:05Z</time>
      </trkpt>
      <trkpt lat="50.42005" lon="3.52476">
        <ele>61.18103</ele>
        <time>2011-06-26T07:12:11Z</time>
      </trkpt>
      <trkpt lat="50.42018" lon="3.5253">
        <ele>60.700317</ele>
        <time>2011-06-26T07:12:17Z</time>
      </trkpt>
      <trkpt lat="50.42026" lon="3.52575">
        <ele>56.374511</ele>
        <time>2011-06-26T07:12:22Z</time>
      </trkpt>
      <trkpt lat="50.42031" lon="3.52612">
        <ele>53.490478</ele>
        <time>2011-06-26T07:12:26Z</time>
      </trkpt>
      <trkpt lat="50.42035" lon="3.52665">
        <ele>53.009765</ele>
        <time>2011-06-26T07:12:32Z</time>
      </trkpt>
      <trkpt lat="50.42036" lon="3.52674">
        <ele>53.009765</ele>
        <time>2011-06-26T07:12:33Z</time>
      </trkpt>
      <trkpt lat="50.4204" lon="3.527">
        <ele>53.009765</ele>
        <time>2011-06-26T07:12:36Z</time>
      </trkpt>
      <trkpt lat="50.42043" lon="3.52746">
        <ele>51.567871</ele>
        <time>2011-06-26T07:12:41Z</time>
      </trkpt>
      <trkpt lat="50.42043" lon="3.52754">
        <ele>51.087158</ele>
        <time>2011-06-26T07:12:42Z</time>
      </trkpt>
      <trkpt lat="50.42046" lon="3.52791">
        <ele>50.606567</ele>
        <time>2011-06-26T07:12:47Z</time>
      </trkpt>
      <trkpt lat="50.42047" lon="3.52835">
        <ele>52.529174</ele>
        <time>2011-06-26T07:12:52Z</time>
      </trkpt>
      <trkpt lat="50.42047" lon="3.52852">
        <ele>51.567871</ele>
        <time>2011-06-26T07:12:54Z</time>
      </trkpt>
      <trkpt lat="50.42046" lon="3.52886">
        <ele>49.16455</ele>
        <time>2011-06-26T07:12:58Z</time>
      </trkpt>
      <trkpt lat="50.42043" lon="3.52926">
        <ele>47.241821</ele>
        <time>2011-06-26T07:13:03Z</time>
      </trkpt>
      <trkpt lat="50.42044" lon="3.52944">
        <ele>48.203369</ele>
        <time>2011-06-26T07:13:06Z</time>
      </trkpt>
      <trkpt lat="50.42044" lon="3.52977">
        <ele>52.529174</ele>
        <time>2011-06-26T07:13:11Z</time>
      </trkpt>
      <trkpt lat="50.42041" lon="3.53011">
        <ele>51.567871</ele>
        <time>2011-06-26T07:13:16Z</time>
      </trkpt>
      <trkpt lat="50.42038" lon="3.53038">
        <ele>52.048584</ele>
        <time>2011-06-26T07:13:20Z</time>
      </trkpt>
      <trkpt lat="50.42035" lon="3.5305">
        <ele>51.087158</ele>
        <time>2011-06-26T07:13:22Z</time>
      </trkpt>
      <trkpt lat="50.42034" lon="3.53061">
        <ele>52.048584</ele>
        <time>2011-06-26T07:13:24Z</time>
      </trkpt>
      <trkpt lat="50.4203" lon="3.53099">
        <ele>48.68396</ele>
        <time>2011-06-26T07:13:30Z</time>
      </trkpt>
      <trkpt lat="50.42029" lon="3.53105">
        <ele>48.68396</ele>
        <time>2011-06-26T07:13:31Z</time>
      </trkpt>
      <trkpt lat="50.42025" lon="3.53135">
        <ele>53.490478</ele>
        <time>2011-06-26T07:13:37Z</time>
      </trkpt>
      <trkpt lat="50.42016" lon="3.53173">
        <ele>53.490478</ele>
        <time>2011-06-26T07:13:43Z</time>
      </trkpt>
      <trkpt lat="50.42008" lon="3.53209">
        <ele>50.606567</ele>
        <time>2011-06-26T07:13:48Z</time>
      </trkpt>
      <trkpt lat="50.42006" lon="3.53218">
        <ele>49.645263</ele>
        <time>2011-06-26T07:13:49Z</time>
      </trkpt>
      <trkpt lat="50.41999" lon="3.53251">
        <ele>43.396606</ele>
        <time>2011-06-26T07:13:53Z</time>
      </trkpt>
      <trkpt lat="50.41998" lon="3.53265">
        <ele>41.954711</ele>
        <time>2011-06-26T07:13:55Z</time>
      </trkpt>
      <trkpt lat="50.41995" lon="3.53287">
        <ele>38.590087</ele>
        <time>2011-06-26T07:13:58Z</time>
      </trkpt>
      <trkpt lat="50.4199" lon="3.53316">
        <ele>35.706054</ele>
        <time>2011-06-26T07:14:02Z</time>
      </trkpt>
      <trkpt lat="50.41983" lon="3.53355">
        <ele>33.783447</ele>
        <time>2011-06-26T07:14:07Z</time>
      </trkpt>
      <trkpt lat="50.41976" lon="3.534">
        <ele>36.186767</ele>
        <time>2011-06-26T07:14:13Z</time>
      </trkpt>
      <trkpt lat="50.41973" lon="3.53419">
        <ele>33.783447</ele>
        <time>2011-06-26T07:14:16Z</time>
      </trkpt>
      <trkpt lat="50.41964" lon="3.53428">
        <ele>29.93811</ele>
        <time>2011-06-26T07:14:22Z</time>
      </trkpt>
      <trkpt lat="50.41959" lon="3.5343">
        <ele>28.015502</ele>
        <time>2011-06-26T07:14:24Z</time>
      </trkpt>
      <trkpt lat="50.41957" lon="3.5343">
        <ele>27.534912</ele>
        <time>2011-06-26T07:14:26Z</time>
      </trkpt>
      <trkpt lat="50.41955" lon="3.53432">
        <ele>27.534912</ele>
        <time>2011-06-26T07:14:28Z</time>
      </trkpt>
      <trkpt lat="50.41952" lon="3.53434">
        <ele>24.170288</ele>
        <time>2011-06-26T07:14:31Z</time>
      </trkpt>
      <trkpt lat="50.41949" lon="3.53434">
        <ele>23.689575</ele>
        <time>2011-06-26T07:14:34Z</time>
      </trkpt>
      <trkpt lat="50.41943" lon="3.53435">
        <ele>27.054321</ele>
        <time>2011-06-26T07:14:43Z</time>
      </trkpt>
      <trkpt lat="50.41942" lon="3.53435">
        <ele>28.976928</ele>
        <time>2011-06-26T07:14:46Z</time>
      </trkpt>
      <trkpt lat="50.41932" lon="3.53446">
        <ele>44.358032</ele>
        <time>2011-06-26T07:15:47Z</time>
      </trkpt>
      <trkpt lat="50.41932" lon="3.53463">
        <ele>43.877319</ele>
        <time>2011-06-26T07:15:51Z</time>
      </trkpt>
      <trkpt lat="50.4193" lon="3.5348">
        <ele>44.838623</ele>
        <time>2011-06-26T07:15:55Z</time>
      </trkpt>
      <trkpt lat="50.41929" lon="3.53491">
        <ele>44.358032</ele>
        <time>2011-06-26T07:15:57Z</time>
      </trkpt>
      <trkpt lat="50.41924" lon="3.53516">
        <ele>44.838623</ele>
        <time>2011-06-26T07:16:02Z</time>
      </trkpt>
      <trkpt lat="50.41918" lon="3.53546">
        <ele>48.68396</ele>
        <time>2011-06-26T07:16:07Z</time>
      </trkpt>
      <trkpt lat="50.4191" lon="3.53585">
        <ele>50.606567</ele>
        <time>2011-06-26T07:16:13Z</time>
      </trkpt>
      <trkpt lat="50.41907" lon="3.53605">
        <ele>49.16455</ele>
        <time>2011-06-26T07:16:16Z</time>
      </trkpt>
      <trkpt lat="50.41903" lon="3.53619">
        <ele>50.606567</ele>
        <time>2011-06-26T07:16:18Z</time>
      </trkpt>
      <trkpt lat="50.41894" lon="3.53658">
        <ele>53.009765</ele>
        <time>2011-06-26T07:16:24Z</time>
      </trkpt>
      <trkpt lat="50.41891" lon="3.53666">
        <ele>53.971191</ele>
        <time>2011-06-26T07:16:25Z</time>
      </trkpt>
      <trkpt lat="50.41886" lon="3.53696">
        <ele>53.009765</ele>
        <time>2011-06-26T07:16:29Z</time>
      </trkpt>
      <trkpt lat="50.41881" lon="3.53729">
        <ele>54.932373</ele>
        <time>2011-06-26T07:16:33Z</time>
      </trkpt>
      <trkpt lat="50.41876" lon="3.53748">
        <ele>56.374511</ele>
        <time>2011-06-26T07:16:35Z</time>
      </trkpt>
      <trkpt lat="50.41867" lon="3.53784">
        <ele>59.258422</ele>
        <time>2011-06-26T07:16:39Z</time>
      </trkpt>
      <trkpt lat="50.41861" lon="3.53812">
        <ele>54.451782</ele>
        <time>2011-06-26T07:16:42Z</time>
      </trkpt>
      <trkpt lat="50.41852" lon="3.53837">
        <ele>50.606567</ele>
        <time>2011-06-26T07:16:45Z</time>
      </trkpt>
      <trkpt lat="50.41841" lon="3.53868">
        <ele>46.76123</ele>
        <time>2011-06-26T07:16:49Z</time>
      </trkpt>
      <trkpt lat="50.41819" lon="3.53924">
        <ele>40.032104</ele>
        <time>2011-06-26T07:16:56Z</time>
      </trkpt>
      <trkpt lat="50.41804" lon="3.53956">
        <ele>38.590087</ele>
        <time>2011-06-26T07:17:00Z</time>
      </trkpt>
      <trkpt lat="50.41796" lon="3.53985">
        <ele>37.148071</ele>
        <time>2011-06-26T07:17:04Z</time>
      </trkpt>
      <trkpt lat="50.41782" lon="3.54023">
        <ele>35.706054</ele>
        <time>2011-06-26T07:17:09Z</time>
      </trkpt>
      <trkpt lat="50.41768" lon="3.54065">
        <ele>36.186767</ele>
        <time>2011-06-26T07:17:15Z</time>
      </trkpt>
      <trkpt lat="50.41762" lon="3.54081">
        <ele>35.706054</ele>
        <time>2011-06-26T07:17:17Z</time>
      </trkpt>
      <trkpt lat="50.41754" lon="3.54098">
        <ele>34.744873</ele>
        <time>2011-06-26T07:17:19Z</time>
      </trkpt>
      <trkpt lat="50.41747" lon="3.54115">
        <ele>37.148071</ele>
        <time>2011-06-26T07:17:21Z</time>
      </trkpt>
      <trkpt lat="50.4174" lon="3.5413">
        <ele>36.186767</ele>
        <time>2011-06-26T07:17:23Z</time>
      </trkpt>
      <trkpt lat="50.41733" lon="3.54159">
        <ele>37.148071</ele>
        <time>2011-06-26T07:17:27Z</time>
      </trkpt>
      <trkpt lat="50.41727" lon="3.54181">
        <ele>37.628662</ele>
        <time>2011-06-26T07:17:30Z</time>
      </trkpt>
      <trkpt lat="50.41715" lon="3.54216">
        <ele>39.551269</ele>
        <time>2011-06-26T07:17:35Z</time>
      </trkpt>
      <trkpt lat="50.4171" lon="3.54231">
        <ele>39.551269</ele>
        <time>2011-06-26T07:17:38Z</time>
      </trkpt>
      <trkpt lat="50.41705" lon="3.54247">
        <ele>37.628662</ele>
        <time>2011-06-26T07:17:42Z</time>
      </trkpt>
      <trkpt lat="50.41697" lon="3.54267">
        <ele>36.66748</ele>
        <time>2011-06-26T07:17:47Z</time>
      </trkpt>
      <trkpt lat="50.41685" lon="3.54272">
        <ele>37.148071</ele>
        <time>2011-06-26T07:17:51Z</time>
      </trkpt>
      <trkpt lat="50.4168" lon="3.54274">
        <ele>36.66748</ele>
        <time>2011-06-26T07:17:52Z</time>
      </trkpt>
      <trkpt lat="50.41664" lon="3.54278">
        <ele>35.706054</ele>
        <time>2011-06-26T07:17:55Z</time>
      </trkpt>
      <trkpt lat="50.41646" lon="3.54279">
        <ele>33.302856</ele>
        <time>2011-06-26T07:17:59Z</time>
      </trkpt>
      <trkpt lat="50.41626" lon="3.54266">
        <ele>32.341552</ele>
        <time>2011-06-26T07:18:04Z</time>
      </trkpt>
      <trkpt lat="50.41617" lon="3.54255">
        <ele>32.341552</ele>
        <time>2011-06-26T07:18:07Z</time>
      </trkpt>
      <trkpt lat="50.41613" lon="3.54249">
        <ele>32.822265</ele>
        <time>2011-06-26T07:18:09Z</time>
      </trkpt>
      <trkpt lat="50.41603" lon="3.54254">
        <ele>33.783447</ele>
        <time>2011-06-26T07:18:13Z</time>
      </trkpt>
      <trkpt lat="50.41607" lon="3.54264">
        <ele>33.783447</ele>
        <time>2011-06-26T07:18:15Z</time>
      </trkpt>
      <trkpt lat="50.41622" lon="3.54282">
        <ele>33.783447</ele>
        <time>2011-06-26T07:18:18Z</time>
      </trkpt>
      <trkpt lat="50.4167" lon="3.54317">
        <ele>34.26416</ele>
        <time>2011-06-26T07:18:25Z</time>
      </trkpt>
      <trkpt lat="50.41677" lon="3.5432">
        <ele>34.26416</ele>
        <time>2011-06-26T07:18:26Z</time>
      </trkpt>
      <trkpt lat="50.41703" lon="3.54322">
        <ele>34.26416</ele>
        <time>2011-06-26T07:18:30Z</time>
      </trkpt>
      <trkpt lat="50.41719" lon="3.54314">
        <ele>33.302856</ele>
        <time>2011-06-26T07:18:33Z</time>
      </trkpt>
      <trkpt lat="50.41738" lon="3.54321">
        <ele>33.783447</ele>
        <time>2011-06-26T07:18:37Z</time>
      </trkpt>
      <trkpt lat="50.41764" lon="3.5435">
        <ele>35.225463</ele>
        <time>2011-06-26T07:18:43Z</time>
      </trkpt>
      <trkpt lat="50.41804" lon="3.54394">
        <ele>35.706054</ele>
        <time>2011-06-26T07:18:51Z</time>
      </trkpt>
      <trkpt lat="50.41832" lon="3.54428">
        <ele>37.148071</ele>
        <time>2011-06-26T07:18:57Z</time>
      </trkpt>
      <trkpt lat="50.41837" lon="3.54448">
        <ele>37.628662</ele>
        <time>2011-06-26T07:19:00Z</time>
      </trkpt>
      <trkpt lat="50.41828" lon="3.54467">
        <ele>39.070678</ele>
        <time>2011-06-26T07:19:03Z</time>
      </trkpt>
      <trkpt lat="50.41788" lon="3.54527">
        <ele>40.512817</ele>
        <time>2011-06-26T07:19:13Z</time>
      </trkpt>
      <trkpt lat="50.41785" lon="3.54533">
        <ele>40.032104</ele>
        <time>2011-06-26T07:19:14Z</time>
      </trkpt>
      <trkpt lat="50.41776" lon="3.54552">
        <ele>39.070678</ele>
        <time>2011-06-26T07:19:17Z</time>
      </trkpt>
      <trkpt lat="50.41766" lon="3.54574">
        <ele>39.070678</ele>
        <time>2011-06-26T07:19:21Z</time>
      </trkpt>
      <trkpt lat="50.41767" lon="3.54586">
        <ele>42.435424</ele>
        <time>2011-06-26T07:19:25Z</time>
      </trkpt>
      <trkpt lat="50.41767" lon="3.54596">
        <ele>41.473999</ele>
        <time>2011-06-26T07:19:27Z</time>
      </trkpt>
      <trkpt lat="50.41764" lon="3.54625">
        <ele>41.954711</ele>
        <time>2011-06-26T07:19:33Z</time>
      </trkpt>
      <trkpt lat="50.41757" lon="3.54652">
        <ele>40.032104</ele>
        <time>2011-06-26T07:19:38Z</time>
      </trkpt>
      <trkpt lat="50.41753" lon="3.54672">
        <ele>38.109375</ele>
        <time>2011-06-26T07:19:42Z</time>
      </trkpt>
      <trkpt lat="50.4175" lon="3.54693">
        <ele>38.590087</ele>
        <time>2011-06-26T07:19:46Z</time>
      </trkpt>
      <trkpt lat="50.41747" lon="3.54716">
        <ele>41.954711</ele>
        <time>2011-06-26T07:19:50Z</time>
      </trkpt>
      <trkpt lat="50.41743" lon="3.54739">
        <ele>44.358032</ele>
        <time>2011-06-26T07:19:54Z</time>
      </trkpt>
      <trkpt lat="50.41741" lon="3.54761">
        <ele>48.203369</ele>
        <time>2011-06-26T07:19:58Z</time>
      </trkpt>
      <trkpt lat="50.41739" lon="3.5479">
        <ele>53.490478</ele>
        <time>2011-06-26T07:20:03Z</time>
      </trkpt>
      <trkpt lat="50.4174" lon="3.54819">
        <ele>54.932373</ele>
        <time>2011-06-26T07:20:08Z</time>
      </trkpt>
      <trkpt lat="50.41745" lon="3.54853">
        <ele>54.932373</ele>
        <time>2011-06-26T07:20:13Z</time>
      </trkpt>
      <trkpt lat="50.41745" lon="3.5486">
        <ele>54.451782</ele>
        <time>2011-06-26T07:20:14Z</time>
      </trkpt>
      <trkpt lat="50.41748" lon="3.54873">
        <ele>56.855102</ele>
        <time>2011-06-26T07:20:16Z</time>
      </trkpt>
      <trkpt lat="50.41755" lon="3.54895">
        <ele>59.739135</ele>
        <time>2011-06-26T07:20:20Z</time>
      </trkpt>
      <trkpt lat="50.41782" lon="3.54936">
        <ele>63.103637</ele>
        <time>2011-06-26T07:20:28Z</time>
      </trkpt>
      <trkpt lat="50.41792" lon="3.54951">
        <ele>63.103637</ele>
        <time>2011-06-26T07:20:31Z</time>
      </trkpt>
      <trkpt lat="50.41804" lon="3.5497">
        <ele>65.50708</ele>
        <time>2011-06-26T07:20:34Z</time>
      </trkpt>
      <trkpt lat="50.41833" lon="3.55024">
        <ele>64.065063</ele>
        <time>2011-06-26T07:20:39Z</time>
      </trkpt>
      <trkpt lat="50.41839" lon="3.55034">
        <ele>64.065063</ele>
        <time>2011-06-26T07:20:40Z</time>
      </trkpt>
      <trkpt lat="50.41864" lon="3.55098">
        <ele>60.219726</ele>
        <time>2011-06-26T07:20:45Z</time>
      </trkpt>
      <trkpt lat="50.4187" lon="3.55109">
        <ele>56.374511</ele>
        <time>2011-06-26T07:20:46Z</time>
      </trkpt>
      <trkpt lat="50.41866" lon="3.55132">
        <ele>39.070678</ele>
        <time>2011-06-26T07:20:50Z</time>
      </trkpt>
      <trkpt lat="50.41859" lon="3.55124">
        <ele>40.512817</ele>
        <time>2011-06-26T07:20:52Z</time>
      </trkpt>
      <trkpt lat="50.41846" lon="3.55103">
        <ele>35.706054</ele>
        <time>2011-06-26T07:20:57Z</time>
      </trkpt>
      <trkpt lat="50.41835" lon="3.55095">
        <ele>31.380127</ele>
        <time>2011-06-26T07:21:00Z</time>
      </trkpt>
      <trkpt lat="50.41812" lon="3.55086">
        <ele>25.612304</ele>
        <time>2011-06-26T07:21:06Z</time>
      </trkpt>
      <trkpt lat="50.41794" lon="3.55084">
        <ele>23.689575</ele>
        <time>2011-06-26T07:21:12Z</time>
      </trkpt>
      <trkpt lat="50.41788" lon="3.55087">
        <ele>21.286377</ele>
        <time>2011-06-26T07:21:18Z</time>
      </trkpt>
      <trkpt lat="50.41783" lon="3.55087">
        <ele>22.728271</ele>
        <time>2011-06-26T07:21:30Z</time>
      </trkpt>
      <trkpt lat="50.41774" lon="3.55088">
        <ele>19.363769</ele>
        <time>2011-06-26T07:21:34Z</time>
      </trkpt>
      <trkpt lat="50.41755" lon="3.55089">
        <ele>16.479736</ele>
        <time>2011-06-26T07:21:39Z</time>
      </trkpt>
      <trkpt lat="50.41734" lon="3.55083">
        <ele>15.518432</ele>
        <time>2011-06-26T07:21:44Z</time>
      </trkpt>
      <trkpt lat="50.4172" lon="3.55071">
        <ele>15.999023</ele>
        <time>2011-06-26T07:21:48Z</time>
      </trkpt>
      <trkpt lat="50.41714" lon="3.55063">
        <ele>15.999023</ele>
        <time>2011-06-26T07:21:50Z</time>
      </trkpt>
      <trkpt lat="50.41711" lon="3.55059">
        <ele>16.479736</ele>
        <time>2011-06-26T07:21:51Z</time>
      </trkpt>
      <trkpt lat="50.41698" lon="3.55043">
        <ele>15.518432</ele>
        <time>2011-06-26T07:21:55Z</time>
      </trkpt>
      <trkpt lat="50.41665" lon="3.55016">
        <ele>17.441162</ele>
        <time>2011-06-26T07:22:03Z</time>
      </trkpt>
      <trkpt lat="50.41636" lon="3.54974">
        <ele>17.921752</ele>
        <time>2011-06-26T07:22:11Z</time>
      </trkpt>
      <trkpt lat="50.41623" lon="3.54952">
        <ele>18.883056</ele>
        <time>2011-06-26T07:22:15Z</time>
      </trkpt>
      <trkpt lat="50.41605" lon="3.54936">
        <ele>18.883056</ele>
        <time>2011-06-26T07:22:19Z</time>
      </trkpt>
      <trkpt lat="50.4158" lon="3.54935">
        <ele>18.883056</ele>
        <time>2011-06-26T07:22:24Z</time>
      </trkpt>
      <trkpt lat="50.41546" lon="3.54947">
        <ele>18.402343</ele>
        <time>2011-06-26T07:22:30Z</time>
      </trkpt>
      <trkpt lat="50.41518" lon="3.54945">
        <ele>22.728271</ele>
        <time>2011-06-26T07:22:36Z</time>
      </trkpt>
      <trkpt lat="50.41483" lon="3.54931">
        <ele>17.441162</ele>
        <time>2011-06-26T07:22:44Z</time>
      </trkpt>
      <trkpt lat="50.41467" lon="3.54924">
        <ele>16.479736</ele>
        <time>2011-06-26T07:22:48Z</time>
      </trkpt>
      <trkpt lat="50.41453" lon="3.54902">
        <ele>16.479736</ele>
        <time>2011-06-26T07:22:53Z</time>
      </trkpt>
      <trkpt lat="50.41452" lon="3.54839">
        <ele>16.479736</ele>
        <time>2011-06-26T07:23:01Z</time>
      </trkpt>
      <trkpt lat="50.41452" lon="3.5483">
        <ele>16.479736</ele>
        <time>2011-06-26T07:23:02Z</time>
      </trkpt>
      <trkpt lat="50.41448" lon="3.54784">
        <ele>16.960449</ele>
        <time>2011-06-26T07:23:08Z</time>
      </trkpt>
      <trkpt lat="50.41435" lon="3.54717">
        <ele>20.324951</ele>
        <time>2011-06-26T07:23:18Z</time>
      </trkpt>
      <trkpt lat="50.41426" lon="3.54663">
        <ele>21.766967</ele>
        <time>2011-06-26T07:23:26Z</time>
      </trkpt>
      <trkpt lat="50.41418" lon="3.54604">
        <ele>22.247558</ele>
        <time>2011-06-26T07:23:34Z</time>
      </trkpt>
      <trkpt lat="50.41416" lon="3.54589">
        <ele>22.247558</ele>
        <time>2011-06-26T07:23:36Z</time>
      </trkpt>
      <trkpt lat="50.41416" lon="3.54556">
        <ele>23.689575</ele>
        <time>2011-06-26T07:23:41Z</time>
      </trkpt>
      <trkpt lat="50.41416" lon="3.54529">
        <ele>26.092895</ele>
        <time>2011-06-26T07:23:48Z</time>
      </trkpt>
      <trkpt lat="50.41414" lon="3.54509">
        <ele>27.534912</ele>
        <time>2011-06-26T07:23:53Z</time>
      </trkpt>
      <trkpt lat="50.41412" lon="3.54494">
        <ele>28.496215</ele>
        <time>2011-06-26T07:23:57Z</time>
      </trkpt>
      <trkpt lat="50.41409" lon="3.5447">
        <ele>30.418823</ele>
        <time>2011-06-26T07:24:05Z</time>
      </trkpt>
      <trkpt lat="50.41408" lon="3.54452">
        <ele>31.860717</ele>
        <time>2011-06-26T07:24:12Z</time>
      </trkpt>
      <trkpt lat="50.41408" lon="3.54432">
        <ele>32.341552</ele>
        <time>2011-06-26T07:24:19Z</time>
      </trkpt>
      <trkpt lat="50.41407" lon="3.5441">
        <ele>33.783447</ele>
        <time>2011-06-26T07:24:24Z</time>
      </trkpt>
      <trkpt lat="50.41406" lon="3.54383">
        <ele>35.706054</ele>
        <time>2011-06-26T07:24:31Z</time>
      </trkpt>
      <trkpt lat="50.41398" lon="3.54367">
        <ele>36.186767</ele>
        <time>2011-06-26T07:24:36Z</time>
      </trkpt>
      <trkpt lat="50.41384" lon="3.54364">
        <ele>35.225463</ele>
        <time>2011-06-26T07:24:40Z</time>
      </trkpt>
      <trkpt lat="50.4137" lon="3.54374">
        <ele>33.302856</ele>
        <time>2011-06-26T07:24:44Z</time>
      </trkpt>
      <trkpt lat="50.41358" lon="3.54404">
        <ele>31.380127</ele>
        <time>2011-06-26T07:24:49Z</time>
      </trkpt>
      <trkpt lat="50.41342" lon="3.54446">
        <ele>28.976928</ele>
        <time>2011-06-26T07:24:55Z</time>
      </trkpt>
      <trkpt lat="50.41338" lon="3.54467">
        <ele>31.380127</ele>
        <time>2011-06-26T07:24:58Z</time>
      </trkpt>
      <trkpt lat="50.41332" lon="3.54479">
        <ele>31.380127</ele>
        <time>2011-06-26T07:25:01Z</time>
      </trkpt>
      <trkpt lat="50.41319" lon="3.54502">
        <ele>30.418823</ele>
        <time>2011-06-26T07:25:04Z</time>
      </trkpt>
      <trkpt lat="50.41308" lon="3.54522">
        <ele>30.418823</ele>
        <time>2011-06-26T07:25:06Z</time>
      </trkpt>
      <trkpt lat="50.41286" lon="3.54543">
        <ele>28.976928</ele>
        <time>2011-06-26T07:25:10Z</time>
      </trkpt>
      <trkpt lat="50.4128" lon="3.54549">
        <ele>27.534912</ele>
        <time>2011-06-26T07:25:12Z</time>
      </trkpt>
      <trkpt lat="50.41265" lon="3.54566">
        <ele>26.573608</ele>
        <time>2011-06-26T07:25:15Z</time>
      </trkpt>
      <trkpt lat="50.41255" lon="3.54568">
        <ele>25.612304</ele>
        <time>2011-06-26T07:25:19Z</time>
      </trkpt>
      <trkpt lat="50.41251" lon="3.54561">
        <ele>25.131713</ele>
        <time>2011-06-26T07:25:22Z</time>
      </trkpt>
      <trkpt lat="50.41233" lon="3.54545">
        <ele>26.092895</ele>
        <time>2011-06-26T07:25:27Z</time>
      </trkpt>
      <trkpt lat="50.41221" lon="3.54523">
        <ele>29.457519</ele>
        <time>2011-06-26T07:25:31Z</time>
      </trkpt>
      <trkpt lat="50.41212" lon="3.54498">
        <ele>31.860717</ele>
        <time>2011-06-26T07:25:35Z</time>
      </trkpt>
      <trkpt lat="50.41201" lon="3.54458">
        <ele>31.380127</ele>
        <time>2011-06-26T07:25:41Z</time>
      </trkpt>
      <trkpt lat="50.41199" lon="3.54452">
        <ele>30.899536</ele>
        <time>2011-06-26T07:25:42Z</time>
      </trkpt>
      <trkpt lat="50.41191" lon="3.54429">
        <ele>29.93811</ele>
        <time>2011-06-26T07:25:47Z</time>
      </trkpt>
      <trkpt lat="50.41186" lon="3.54421">
        <ele>32.341552</ele>
        <time>2011-06-26T07:25:49Z</time>
      </trkpt>
      <trkpt lat="50.41183" lon="3.54414">
        <ele>34.744873</ele>
        <time>2011-06-26T07:25:51Z</time>
      </trkpt>
      <trkpt lat="50.41188" lon="3.54378">
        <ele>40.512817</ele>
        <time>2011-06-26T07:25:57Z</time>
      </trkpt>
      <trkpt lat="50.41195" lon="3.54364">
        <ele>41.954711</ele>
        <time>2011-06-26T07:25:59Z</time>
      </trkpt>
      <trkpt lat="50.41212" lon="3.5434">
        <ele>44.838623</ele>
        <time>2011-06-26T07:26:03Z</time>
      </trkpt>
      <trkpt lat="50.41239" lon="3.54308">
        <ele>42.435424</ele>
        <time>2011-06-26T07:26:09Z</time>
      </trkpt>
      <trkpt lat="50.41268" lon="3.5427">
        <ele>38.590087</ele>
        <time>2011-06-26T07:26:16Z</time>
      </trkpt>
      <trkpt lat="50.41288" lon="3.54252">
        <ele>37.148071</ele>
        <time>2011-06-26T07:26:21Z</time>
      </trkpt>
      <trkpt lat="50.41322" lon="3.54209">
        <ele>34.26416</ele>
        <time>2011-06-26T07:26:29Z</time>
      </trkpt>
      <trkpt lat="50.41358" lon="3.54169">
        <ele>32.341552</ele>
        <time>2011-06-26T07:26:36Z</time>
      </trkpt>
      <trkpt lat="50.41397" lon="3.54125">
        <ele>31.860717</ele>
        <time>2011-06-26T07:26:44Z</time>
      </trkpt>
      <trkpt lat="50.41429" lon="3.54087">
        <ele>30.899536</ele>
        <time>2011-06-26T07:26:51Z</time>
      </trkpt>
      <trkpt lat="50.41434" lon="3.54082">
        <ele>30.899536</ele>
        <time>2011-06-26T07:26:52Z</time>
      </trkpt>
      <trkpt lat="50.41452" lon="3.54057">
        <ele>31.860717</ele>
        <time>2011-06-26T07:26:57Z</time>
      </trkpt>
      <trkpt lat="50.41459" lon="3.54049">
        <ele>33.302856</ele>
        <time>2011-06-26T07:27:01Z</time>
      </trkpt>
      <trkpt lat="50.41466" lon="3.54041">
        <ele>36.186767</ele>
        <time>2011-06-26T07:27:07Z</time>
      </trkpt>
      <trkpt lat="50.41469" lon="3.54024">
        <ele>35.706054</ele>
        <time>2011-06-26T07:27:12Z</time>
      </trkpt>
      <trkpt lat="50.41473" lon="3.53991">
        <ele>34.744873</ele>
        <time>2011-06-26T07:27:18Z</time>
      </trkpt>
      <trkpt lat="50.41482" lon="3.53944">
        <ele>34.26416</ele>
        <time>2011-06-26T07:27:25Z</time>
      </trkpt>
      <trkpt lat="50.41491" lon="3.53893">
        <ele>33.783447</ele>
        <time>2011-06-26T07:27:32Z</time>
      </trkpt>
      <trkpt lat="50.41499" lon="3.53847">
        <ele>33.783447</ele>
        <time>2011-06-26T07:27:38Z</time>
      </trkpt>
      <trkpt lat="50.41495" lon="3.5381">
        <ele>34.26416</ele>
        <time>2011-06-26T07:27:43Z</time>
      </trkpt>
      <trkpt lat="50.41483" lon="3.53802">
        <ele>32.822265</ele>
        <time>2011-06-26T07:27:46Z</time>
      </trkpt>
      <trkpt lat="50.41478" lon="3.538">
        <ele>31.860717</ele>
        <time>2011-06-26T07:27:47Z</time>
      </trkpt>
      <trkpt lat="50.41467" lon="3.53797">
        <ele>30.899536</ele>
        <time>2011-06-26T07:27:49Z</time>
      </trkpt>
      <trkpt lat="50.41447" lon="3.53788">
        <ele>28.015502</ele>
        <time>2011-06-26T07:27:53Z</time>
      </trkpt>
      <trkpt lat="50.41425" lon="3.53778">
        <ele>26.092895</ele>
        <time>2011-06-26T07:27:57Z</time>
      </trkpt>
      <trkpt lat="50.41385" lon="3.53763">
        <ele>24.651001</ele>
        <time>2011-06-26T07:28:04Z</time>
      </trkpt>
      <trkpt lat="50.41369" lon="3.53745">
        <ele>24.170288</ele>
        <time>2011-06-26T07:28:08Z</time>
      </trkpt>
      <trkpt lat="50.4137" lon="3.53736">
        <ele>23.689575</ele>
        <time>2011-06-26T07:28:09Z</time>
      </trkpt>
      <trkpt lat="50.41374" lon="3.53711">
        <ele>24.170288</ele>
        <time>2011-06-26T07:28:12Z</time>
      </trkpt>
      <trkpt lat="50.41377" lon="3.53678">
        <ele>25.612304</ele>
        <time>2011-06-26T07:28:16Z</time>
      </trkpt>
      <trkpt lat="50.4138" lon="3.5366">
        <ele>26.092895</ele>
        <time>2011-06-26T07:28:18Z</time>
      </trkpt>
      <trkpt lat="50.41381" lon="3.53643">
        <ele>27.054321</ele>
        <time>2011-06-26T07:28:20Z</time>
      </trkpt>
      <trkpt lat="50.41382" lon="3.53617">
        <ele>28.015502</ele>
        <time>2011-06-26T07:28:23Z</time>
      </trkpt>
      <trkpt lat="50.41388" lon="3.53585">
        <ele>28.976928</ele>
        <time>2011-06-26T07:28:28Z</time>
      </trkpt>
      <trkpt lat="50.41396" lon="3.53539">
        <ele>28.976928</ele>
        <time>2011-06-26T07:28:34Z</time>
      </trkpt>
      <trkpt lat="50.41406" lon="3.53499">
        <ele>31.860717</ele>
        <time>2011-06-26T07:28:39Z</time>
      </trkpt>
      <trkpt lat="50.41419" lon="3.53486">
        <ele>32.822265</ele>
        <time>2011-06-26T07:28:43Z</time>
      </trkpt>
      <trkpt lat="50.41429" lon="3.53481">
        <ele>32.822265</ele>
        <time>2011-06-26T07:28:46Z</time>
      </trkpt>
      <trkpt lat="50.41422" lon="3.53462">
        <ele>36.66748</ele>
        <time>2011-06-26T07:28:50Z</time>
      </trkpt>
      <trkpt lat="50.41422" lon="3.5345">
        <ele>37.148071</ele>
        <time>2011-06-26T07:28:52Z</time>
      </trkpt>
      <trkpt lat="50.41426" lon="3.53423">
        <ele>37.148071</ele>
        <time>2011-06-26T07:28:57Z</time>
      </trkpt>
      <trkpt lat="50.41431" lon="3.53392">
        <ele>34.744873</ele>
        <time>2011-06-26T07:29:02Z</time>
      </trkpt>
      <trkpt lat="50.41441" lon="3.5335">
        <ele>31.860717</ele>
        <time>2011-06-26T07:29:08Z</time>
      </trkpt>
      <trkpt lat="50.41442" lon="3.53342">
        <ele>31.860717</ele>
        <time>2011-06-26T07:29:09Z</time>
      </trkpt>
      <trkpt lat="50.41453" lon="3.53289">
        <ele>35.706054</ele>
        <time>2011-06-26T07:29:16Z</time>
      </trkpt>
      <trkpt lat="50.41458" lon="3.53265">
        <ele>36.66748</ele>
        <time>2011-06-26T07:29:19Z</time>
      </trkpt>
      <trkpt lat="50.4147" lon="3.53235">
        <ele>38.109375</ele>
        <time>2011-06-26T07:29:24Z</time>
      </trkpt>
      <trkpt lat="50.41477" lon="3.53217">
        <ele>40.032104</ele>
        <time>2011-06-26T07:29:28Z</time>
      </trkpt>
      <trkpt lat="50.41487" lon="3.5318">
        <ele>40.993408</ele>
        <time>2011-06-26T07:29:34Z</time>
      </trkpt>
      <trkpt lat="50.41496" lon="3.53153">
        <ele>40.032104</ele>
        <time>2011-06-26T07:29:38Z</time>
      </trkpt>
      <trkpt lat="50.41507" lon="3.53109">
        <ele>40.032104</ele>
        <time>2011-06-26T07:29:44Z</time>
      </trkpt>
      <trkpt lat="50.41515" lon="3.53073">
        <ele>40.032104</ele>
        <time>2011-06-26T07:29:49Z</time>
      </trkpt>
      <trkpt lat="50.41523" lon="3.53028">
        <ele>40.512817</ele>
        <time>2011-06-26T07:29:54Z</time>
      </trkpt>
      <trkpt lat="50.41532" lon="3.52981">
        <ele>41.473999</ele>
        <time>2011-06-26T07:29:59Z</time>
      </trkpt>
      <trkpt lat="50.41539" lon="3.52945">
        <ele>40.993408</ele>
        <time>2011-06-26T07:30:03Z</time>
      </trkpt>
      <trkpt lat="50.41543" lon="3.52908">
        <ele>40.512817</ele>
        <time>2011-06-26T07:30:08Z</time>
      </trkpt>
      <trkpt lat="50.41533" lon="3.52875">
        <ele>38.590087</ele>
        <time>2011-06-26T07:30:13Z</time>
      </trkpt>
      <trkpt lat="50.4153" lon="3.52886">
        <ele>39.551269</ele>
        <time>2011-06-26T07:30:15Z</time>
      </trkpt>
      <trkpt lat="50.41516" lon="3.52937">
        <ele>36.66748</ele>
        <time>2011-06-26T07:30:21Z</time>
      </trkpt>
      <trkpt lat="50.4151" lon="3.5298">
        <ele>36.186767</ele>
        <time>2011-06-26T07:30:26Z</time>
      </trkpt>
      <trkpt lat="50.41496" lon="3.5303">
        <ele>39.070678</ele>
        <time>2011-06-26T07:30:32Z</time>
      </trkpt>
      <trkpt lat="50.41494" lon="3.53039">
        <ele>40.032104</ele>
        <time>2011-06-26T07:30:33Z</time>
      </trkpt>
      <trkpt lat="50.41489" lon="3.53055">
        <ele>42.435424</ele>
        <time>2011-06-26T07:30:35Z</time>
      </trkpt>
      <trkpt lat="50.4148" lon="3.53117">
        <ele>38.590087</ele>
        <time>2011-06-26T07:30:41Z</time>
      </trkpt>
      <trkpt lat="50.41472" lon="3.53146">
        <ele>39.070678</ele>
        <time>2011-06-26T07:30:44Z</time>
      </trkpt>
      <trkpt lat="50.41463" lon="3.53183">
        <ele>40.512817</ele>
        <time>2011-06-26T07:30:48Z</time>
      </trkpt>
      <trkpt lat="50.41445" lon="3.53232">
        <ele>41.954711</ele>
        <time>2011-06-26T07:30:53Z</time>
      </trkpt>
      <trkpt lat="50.41427" lon="3.53288">
        <ele>42.916015</ele>
        <time>2011-06-26T07:30:59Z</time>
      </trkpt>
      <trkpt lat="50.41419" lon="3.53314">
        <ele>42.916015</ele>
        <time>2011-06-26T07:31:02Z</time>
      </trkpt>
      <trkpt lat="50.41412" lon="3.53349">
        <ele>40.993408</ele>
        <time>2011-06-26T07:31:06Z</time>
      </trkpt>
      <trkpt lat="50.41405" lon="3.53364">
        <ele>40.032104</ele>
        <time>2011-06-26T07:31:10Z</time>
      </trkpt>
      <trkpt lat="50.41402" lon="3.53359">
        <ele>39.551269</ele>
        <time>2011-06-26T07:31:11Z</time>
      </trkpt>
      <trkpt lat="50.41391" lon="3.53341">
        <ele>37.628662</ele>
        <time>2011-06-26T07:31:14Z</time>
      </trkpt>
      <trkpt lat="50.41365" lon="3.53328">
        <ele>32.341552</ele>
        <time>2011-06-26T07:31:18Z</time>
      </trkpt>
      <trkpt lat="50.4133" lon="3.53304">
        <ele>27.534912</ele>
        <time>2011-06-26T07:31:24Z</time>
      </trkpt>
      <trkpt lat="50.41302" lon="3.53281">
        <ele>24.651001</ele>
        <time>2011-06-26T07:31:29Z</time>
      </trkpt>
      <trkpt lat="50.4128" lon="3.53265">
        <ele>23.208984</ele>
        <time>2011-06-26T07:31:33Z</time>
      </trkpt>
      <trkpt lat="50.41266" lon="3.53248">
        <ele>23.689575</ele>
        <time>2011-06-26T07:31:36Z</time>
      </trkpt>
      <trkpt lat="50.4124" lon="3.53215">
        <ele>24.651001</ele>
        <time>2011-06-26T07:31:42Z</time>
      </trkpt>
      <trkpt lat="50.41214" lon="3.53191">
        <ele>21.766967</ele>
        <time>2011-06-26T07:31:48Z</time>
      </trkpt>
      <trkpt lat="50.4121" lon="3.53188">
        <ele>22.247558</ele>
        <time>2011-06-26T07:31:49Z</time>
      </trkpt>
      <trkpt lat="50.41199" lon="3.53176">
        <ele>24.651001</ele>
        <time>2011-06-26T07:31:53Z</time>
      </trkpt>
      <trkpt lat="50.412" lon="3.53166">
        <ele>27.054321</ele>
        <time>2011-06-26T07:31:58Z</time>
      </trkpt>
      <trkpt lat="50.41199" lon="3.53165">
        <ele>27.534912</ele>
        <time>2011-06-26T07:32:02Z</time>
      </trkpt>
      <trkpt lat="50.41203" lon="3.53148">
        <ele>49.645263</ele>
        <time>2011-06-26T07:32:59Z</time>
      </trkpt>
      <trkpt lat="50.41203" lon="3.53144">
        <ele>49.16455</ele>
        <time>2011-06-26T07:33:00Z</time>
      </trkpt>
      <trkpt lat="50.41203" lon="3.53132">
        <ele>44.838623</ele>
        <time>2011-06-26T07:33:02Z</time>
      </trkpt>
      <trkpt lat="50.41208" lon="3.53089">
        <ele>42.435424</ele>
        <time>2011-06-26T07:33:09Z</time>
      </trkpt>
      <trkpt lat="50.41212" lon="3.53054">
        <ele>41.473999</ele>
        <time>2011-06-26T07:33:14Z</time>
      </trkpt>
      <trkpt lat="50.41216" lon="3.53018">
        <ele>41.473999</ele>
        <time>2011-06-26T07:33:19Z</time>
      </trkpt>
      <trkpt lat="50.4122" lon="3.53014">
        <ele>37.148071</ele>
        <time>2011-06-26T07:33:23Z</time>
      </trkpt>
      <trkpt lat="50.41223" lon="3.53016">
        <ele>37.148071</ele>
        <time>2011-06-26T07:33:24Z</time>
      </trkpt>
      <trkpt lat="50.41248" lon="3.53024">
        <ele>36.186767</ele>
        <time>2011-06-26T07:33:30Z</time>
      </trkpt>
      <trkpt lat="50.41263" lon="3.53005">
        <ele>36.66748</ele>
        <time>2011-06-26T07:33:34Z</time>
      </trkpt>
      <trkpt lat="50.41291" lon="3.52957">
        <ele>33.783447</ele>
        <time>2011-06-26T07:33:42Z</time>
      </trkpt>
      <trkpt lat="50.41315" lon="3.52916">
        <ele>28.496215</ele>
        <time>2011-06-26T07:33:49Z</time>
      </trkpt>
      <trkpt lat="50.41334" lon="3.52876">
        <ele>31.380127</ele>
        <time>2011-06-26T07:33:55Z</time>
      </trkpt>
      <trkpt lat="50.41345" lon="3.52848">
        <ele>31.860717</ele>
        <time>2011-06-26T07:33:59Z</time>
      </trkpt>
      <trkpt lat="50.41347" lon="3.52841">
        <ele>33.783447</ele>
        <time>2011-06-26T07:34:00Z</time>
      </trkpt>
      <trkpt lat="50.41363" lon="3.52805">
        <ele>36.186767</ele>
        <time>2011-06-26T07:34:06Z</time>
      </trkpt>
      <trkpt lat="50.41372" lon="3.5278">
        <ele>37.148071</ele>
        <time>2011-06-26T07:34:11Z</time>
      </trkpt>
      <trkpt lat="50.4138" lon="3.52757">
        <ele>36.186767</ele>
        <time>2011-06-26T07:34:16Z</time>
      </trkpt>
      <trkpt lat="50.4139" lon="3.52729">
        <ele>38.109375</ele>
        <time>2011-06-26T07:34:22Z</time>
      </trkpt>
      <trkpt lat="50.41399" lon="3.52708">
        <ele>39.551269</ele>
        <time>2011-06-26T07:34:27Z</time>
      </trkpt>
      <trkpt lat="50.41396" lon="3.52699">
        <ele>36.186767</ele>
        <time>2011-06-26T07:34:31Z</time>
      </trkpt>
      <trkpt lat="50.41394" lon="3.52694">
        <ele>34.744873</ele>
        <time>2011-06-26T07:34:33Z</time>
      </trkpt>
      <trkpt lat="50.41395" lon="3.52677">
        <ele>34.744873</ele>
        <time>2011-06-26T07:34:38Z</time>
      </trkpt>
      <trkpt lat="50.41401" lon="3.52656">
        <ele>34.26416</ele>
        <time>2011-06-26T07:34:44Z</time>
      </trkpt>
      <trkpt lat="50.4141" lon="3.52635">
        <ele>41.473999</ele>
        <time>2011-06-26T07:34:50Z</time>
      </trkpt>
      <trkpt lat="50.41417" lon="3.52621">
        <ele>52.048584</ele>
        <time>2011-06-26T07:34:56Z</time>
      </trkpt>
      <trkpt lat="50.41421" lon="3.52602">
        <ele>58.297119</ele>
        <time>2011-06-26T07:35:05Z</time>
      </trkpt>
      <trkpt lat="50.41422" lon="3.52598">
        <ele>61.18103</ele>
        <time>2011-06-26T07:35:07Z</time>
      </trkpt>
      <trkpt lat="50.41422" lon="3.52595">
        <ele>63.58435</ele>
        <time>2011-06-26T07:35:09Z</time>
      </trkpt>
      <trkpt lat="50.41423" lon="3.52583">
        <ele>62.622924</ele>
        <time>2011-06-26T07:35:15Z</time>
      </trkpt>
      <trkpt lat="50.41423" lon="3.52578">
        <ele>60.219726</ele>
        <time>2011-06-26T07:35:17Z</time>
      </trkpt>
      <trkpt lat="50.41423" lon="3.52571">
        <ele>57.816528</ele>
        <time>2011-06-26T07:35:20Z</time>
      </trkpt>
      <trkpt lat="50.41422" lon="3.52557">
        <ele>57.816528</ele>
        <time>2011-06-26T07:35:26Z</time>
      </trkpt>
      <trkpt lat="50.41423" lon="3.52546">
        <ele>54.932373</ele>
        <time>2011-06-26T07:35:30Z</time>
      </trkpt>
      <trkpt lat="50.41429" lon="3.52525">
        <ele>54.451782</ele>
        <time>2011-06-26T07:35:38Z</time>
      </trkpt>
      <trkpt lat="50.41436" lon="3.52507">
        <ele>55.893798</ele>
        <time>2011-06-26T07:35:45Z</time>
      </trkpt>
      <trkpt lat="50.4144" lon="3.525">
        <ele>58.297119</ele>
        <time>2011-06-26T07:35:48Z</time>
      </trkpt>
      <trkpt lat="50.41447" lon="3.52485">
        <ele>62.622924</ele>
        <time>2011-06-26T07:35:54Z</time>
      </trkpt>
      <trkpt lat="50.4145" lon="3.52464">
        <ele>58.297119</ele>
        <time>2011-06-26T07:36:00Z</time>
      </trkpt>
      <trkpt lat="50.41459" lon="3.52442">
        <ele>64.065063</ele>
        <time>2011-06-26T07:36:08Z</time>
      </trkpt>
      <trkpt lat="50.41468" lon="3.5243">
        <ele>66.948974</ele>
        <time>2011-06-26T07:36:14Z</time>
      </trkpt>
      <trkpt lat="50.41475" lon="3.52417">
        <ele>68.390869</ele>
        <time>2011-06-26T07:36:19Z</time>
      </trkpt>
      <trkpt lat="50.4148" lon="3.52386">
        <ele>62.142334</ele>
        <time>2011-06-26T07:36:28Z</time>
      </trkpt>
      <trkpt lat="50.41481" lon="3.52381">
        <ele>62.142334</ele>
        <time>2011-06-26T07:36:30Z</time>
      </trkpt>
      <trkpt lat="50.41479" lon="3.52358">
        <ele>57.816528</ele>
        <time>2011-06-26T07:36:37Z</time>
      </trkpt>
      <trkpt lat="50.41479" lon="3.52355">
        <ele>57.816528</ele>
        <time>2011-06-26T07:36:38Z</time>
      </trkpt>
      <trkpt lat="50.41478" lon="3.52336">
        <ele>58.297119</ele>
        <time>2011-06-26T07:36:44Z</time>
      </trkpt>
      <trkpt lat="50.41479" lon="3.52317">
        <ele>55.893798</ele>
        <time>2011-06-26T07:36:50Z</time>
      </trkpt>
      <trkpt lat="50.41474" lon="3.52304">
        <ele>56.855102</ele>
        <time>2011-06-26T07:36:55Z</time>
      </trkpt>
      <trkpt lat="50.41471" lon="3.52292">
        <ele>57.816528</ele>
        <time>2011-06-26T07:37:00Z</time>
      </trkpt>
      <trkpt lat="50.41465" lon="3.52274">
        <ele>60.700317</ele>
        <time>2011-06-26T07:37:08Z</time>
      </trkpt>
      <trkpt lat="50.41462" lon="3.52258">
        <ele>64.065063</ele>
        <time>2011-06-26T07:37:15Z</time>
      </trkpt>
      <trkpt lat="50.41456" lon="3.52248">
        <ele>64.545654</ele>
        <time>2011-06-26T07:37:21Z</time>
      </trkpt>
      <trkpt lat="50.41452" lon="3.52237">
        <ele>65.50708</ele>
        <time>2011-06-26T07:37:27Z</time>
      </trkpt>
      <trkpt lat="50.41451" lon="3.5223">
        <ele>68.390869</ele>
        <time>2011-06-26T07:37:30Z</time>
      </trkpt>
      <trkpt lat="50.41449" lon="3.52222">
        <ele>68.871582</ele>
        <time>2011-06-26T07:37:34Z</time>
      </trkpt>
      <trkpt lat="50.41445" lon="3.52211">
        <ele>73.197631</ele>
        <time>2011-06-26T07:37:41Z</time>
      </trkpt>
      <trkpt lat="50.41438" lon="3.52211">
        <ele>77.042846</ele>
        <time>2011-06-26T07:37:49Z</time>
      </trkpt>
      <trkpt lat="50.41429" lon="3.52215">
        <ele>81.368774</ele>
        <time>2011-06-26T07:37:57Z</time>
      </trkpt>
      <trkpt lat="50.41427" lon="3.52216">
        <ele>82.330078</ele>
        <time>2011-06-26T07:37:59Z</time>
      </trkpt>
      <trkpt lat="50.41422" lon="3.52226">
        <ele>80.888183</ele>
        <time>2011-06-26T07:38:04Z</time>
      </trkpt>
      <trkpt lat="50.41418" lon="3.52242">
        <ele>82.330078</ele>
        <time>2011-06-26T07:38:11Z</time>
      </trkpt>
      <trkpt lat="50.41423" lon="3.52265">
        <ele>84.733398</ele>
        <time>2011-06-26T07:38:17Z</time>
      </trkpt>
      <trkpt lat="50.41424" lon="3.52278">
        <ele>85.69458</ele>
        <time>2011-06-26T07:38:21Z</time>
      </trkpt>
      <trkpt lat="50.41427" lon="3.52299">
        <ele>86.175293</ele>
        <time>2011-06-26T07:38:24Z</time>
      </trkpt>
      <trkpt lat="50.41443" lon="3.52346">
        <ele>85.213989</ele>
        <time>2011-06-26T07:38:31Z</time>
      </trkpt>
      <trkpt lat="50.41437" lon="3.52392">
        <ele>83.291381</ele>
        <time>2011-06-26T07:38:35Z</time>
      </trkpt>
      <trkpt lat="50.41427" lon="3.52418">
        <ele>81.849365</ele>
        <time>2011-06-26T07:38:37Z</time>
      </trkpt>
      <trkpt lat="50.41418" lon="3.52446">
        <ele>80.40747</ele>
        <time>2011-06-26T07:38:39Z</time>
      </trkpt>
      <trkpt lat="50.41394" lon="3.5249">
        <ele>76.562133</ele>
        <time>2011-06-26T07:38:43Z</time>
      </trkpt>
      <trkpt lat="50.41382" lon="3.52509">
        <ele>75.60083</ele>
        <time>2011-06-26T07:38:46Z</time>
      </trkpt>
      <trkpt lat="50.41375" lon="3.52541">
        <ele>70.313476</ele>
        <time>2011-06-26T07:38:51Z</time>
      </trkpt>
      <trkpt lat="50.41366" lon="3.52563">
        <ele>66.468261</ele>
        <time>2011-06-26T07:38:54Z</time>
      </trkpt>
      <trkpt lat="50.41355" lon="3.52582">
        <ele>60.700317</ele>
        <time>2011-06-26T07:38:59Z</time>
      </trkpt>
      <trkpt lat="50.41354" lon="3.52589">
        <ele>61.18103</ele>
        <time>2011-06-26T07:39:01Z</time>
      </trkpt>
      <trkpt lat="50.41354" lon="3.52598">
        <ele>59.258422</ele>
        <time>2011-06-26T07:39:03Z</time>
      </trkpt>
      <trkpt lat="50.41355" lon="3.52601">
        <ele>53.971191</ele>
        <time>2011-06-26T07:39:07Z</time>
      </trkpt>
      <trkpt lat="50.41347" lon="3.5261">
        <ele>53.009765</ele>
        <time>2011-06-26T07:39:18Z</time>
      </trkpt>
      <trkpt lat="50.41338" lon="3.52625">
        <ele>53.009765</ele>
        <time>2011-06-26T07:39:20Z</time>
      </trkpt>
      <trkpt lat="50.41326" lon="3.52623">
        <ele>50.606567</ele>
        <time>2011-06-26T07:39:25Z</time>
      </trkpt>
      <trkpt lat="50.41321" lon="3.52618">
        <ele>49.645263</ele>
        <time>2011-06-26T07:39:27Z</time>
      </trkpt>
      <trkpt lat="50.4131" lon="3.52608">
        <ele>47.722534</ele>
        <time>2011-06-26T07:39:32Z</time>
      </trkpt>
      <trkpt lat="50.41304" lon="3.5262">
        <ele>46.76123</ele>
        <time>2011-06-26T07:39:36Z</time>
      </trkpt>
      <trkpt lat="50.41284" lon="3.52643">
        <ele>42.435424</ele>
        <time>2011-06-26T07:39:41Z</time>
      </trkpt>
      <trkpt lat="50.41278" lon="3.52644">
        <ele>41.473999</ele>
        <time>2011-06-26T07:39:42Z</time>
      </trkpt>
      <trkpt lat="50.4126" lon="3.52654">
        <ele>37.628662</ele>
        <time>2011-06-26T07:39:46Z</time>
      </trkpt>
      <trkpt lat="50.41257" lon="3.5265">
        <ele>38.590087</ele>
        <time>2011-06-26T07:39:49Z</time>
      </trkpt>
      <trkpt lat="50.41258" lon="3.5264">
        <ele>39.070678</ele>
        <time>2011-06-26T07:39:54Z</time>
      </trkpt>
      <trkpt lat="50.41258" lon="3.52638">
        <ele>38.590087</ele>
        <time>2011-06-26T07:39:57Z</time>
      </trkpt>
      <trkpt lat="50.41254" lon="3.5263">
        <ele>34.744873</ele>
        <time>2011-06-26T07:43:44Z</time>
      </trkpt>
      <trkpt lat="50.41255" lon="3.52627">
        <ele>34.744873</ele>
        <time>2011-06-26T07:43:45Z</time>
      </trkpt>
      <trkpt lat="50.41254" lon="3.52621">
        <ele>35.706054</ele>
        <time>2011-06-26T07:43:46Z</time>
      </trkpt>
      <trkpt lat="50.41255" lon="3.52612">
        <ele>37.148071</ele>
        <time>2011-06-26T07:43:49Z</time>
      </trkpt>
      <trkpt lat="50.41252" lon="3.5259">
        <ele>38.590087</ele>
        <time>2011-06-26T07:43:56Z</time>
      </trkpt>
      <trkpt lat="50.41248" lon="3.52576">
        <ele>38.109375</ele>
        <time>2011-06-26T07:44:00Z</time>
      </trkpt>
      <trkpt lat="50.41244" lon="3.52568">
        <ele>37.148071</ele>
        <time>2011-06-26T07:44:03Z</time>
      </trkpt>
      <trkpt lat="50.41241" lon="3.5256">
        <ele>35.706054</ele>
        <time>2011-06-26T07:44:06Z</time>
      </trkpt>
      <trkpt lat="50.41239" lon="3.52558">
        <ele>35.225463</ele>
        <time>2011-06-26T07:44:07Z</time>
      </trkpt>
      <trkpt lat="50.41236" lon="3.52551">
        <ele>34.26416</ele>
        <time>2011-06-26T07:44:10Z</time>
      </trkpt>
      <trkpt lat="50.41225" lon="3.52536">
        <ele>36.186767</ele>
        <time>2011-06-26T07:44:18Z</time>
      </trkpt>
      <trkpt lat="50.41217" lon="3.52527">
        <ele>39.070678</ele>
        <time>2011-06-26T07:44:24Z</time>
      </trkpt>
      <trkpt lat="50.41209" lon="3.52515">
        <ele>41.954711</ele>
        <time>2011-06-26T07:44:31Z</time>
      </trkpt>
      <trkpt lat="50.41198" lon="3.52504">
        <ele>45.799926</ele>
        <time>2011-06-26T07:44:39Z</time>
      </trkpt>
      <trkpt lat="50.41184" lon="3.52492">
        <ele>47.722534</ele>
        <time>2011-06-26T07:44:48Z</time>
      </trkpt>
      <trkpt lat="50.41169" lon="3.52476">
        <ele>49.645263</ele>
        <time>2011-06-26T07:44:57Z</time>
      </trkpt>
      <trkpt lat="50.4116" lon="3.52461">
        <ele>52.529174</ele>
        <time>2011-06-26T07:45:04Z</time>
      </trkpt>
      <trkpt lat="50.41156" lon="3.52447">
        <ele>53.490478</ele>
        <time>2011-06-26T07:45:10Z</time>
      </trkpt>
      <trkpt lat="50.41157" lon="3.5243">
        <ele>54.932373</ele>
        <time>2011-06-26T07:45:17Z</time>
      </trkpt>
      <trkpt lat="50.41158" lon="3.52422">
        <ele>56.374511</ele>
        <time>2011-06-26T07:45:20Z</time>
      </trkpt>
      <trkpt lat="50.41161" lon="3.524">
        <ele>61.661743</ele>
        <time>2011-06-26T07:45:28Z</time>
      </trkpt>
      <trkpt lat="50.41166" lon="3.52385">
        <ele>63.103637</ele>
        <time>2011-06-26T07:45:35Z</time>
      </trkpt>
      <trkpt lat="50.41177" lon="3.52369">
        <ele>61.18103</ele>
        <time>2011-06-26T07:45:43Z</time>
      </trkpt>
      <trkpt lat="50.4119" lon="3.52352">
        <ele>57.816528</ele>
        <time>2011-06-26T07:45:51Z</time>
      </trkpt>
      <trkpt lat="50.412" lon="3.52338">
        <ele>54.451782</ele>
        <time>2011-06-26T07:45:58Z</time>
      </trkpt>
      <trkpt lat="50.41213" lon="3.52324">
        <ele>51.567871</ele>
        <time>2011-06-26T07:46:05Z</time>
      </trkpt>
      <trkpt lat="50.41227" lon="3.5231">
        <ele>52.048584</ele>
        <time>2011-06-26T07:46:13Z</time>
      </trkpt>
      <trkpt lat="50.41236" lon="3.52297">
        <ele>53.490478</ele>
        <time>2011-06-26T07:46:19Z</time>
      </trkpt>
      <trkpt lat="50.41245" lon="3.52274">
        <ele>63.58435</ele>
        <time>2011-06-26T07:46:27Z</time>
      </trkpt>
      <trkpt lat="50.41254" lon="3.52241">
        <ele>69.832885</ele>
        <time>2011-06-26T07:46:37Z</time>
      </trkpt>
      <trkpt lat="50.41265" lon="3.52218">
        <ele>71.274902</ele>
        <time>2011-06-26T07:46:45Z</time>
      </trkpt>
      <trkpt lat="50.4127" lon="3.522">
        <ele>73.197631</ele>
        <time>2011-06-26T07:46:50Z</time>
      </trkpt>
      <trkpt lat="50.4127" lon="3.52174">
        <ele>74.639526</ele>
        <time>2011-06-26T07:46:53Z</time>
      </trkpt>
      <trkpt lat="50.41269" lon="3.52161">
        <ele>76.562133</ele>
        <time>2011-06-26T07:46:56Z</time>
      </trkpt>
      <trkpt lat="50.41261" lon="3.52146">
        <ele>76.562133</ele>
        <time>2011-06-26T07:47:02Z</time>
      </trkpt>
      <trkpt lat="50.41247" lon="3.52136">
        <ele>76.08142</ele>
        <time>2011-06-26T07:47:09Z</time>
      </trkpt>
      <trkpt lat="50.41235" lon="3.52114">
        <ele>78.004028</ele>
        <time>2011-06-26T07:47:15Z</time>
      </trkpt>
      <trkpt lat="50.41229" lon="3.5209">
        <ele>77.523437</ele>
        <time>2011-06-26T07:47:19Z</time>
      </trkpt>
      <trkpt lat="50.41229" lon="3.52066">
        <ele>77.523437</ele>
        <time>2011-06-26T07:47:22Z</time>
      </trkpt>
      <trkpt lat="50.4124" lon="3.52057">
        <ele>78.004028</ele>
        <time>2011-06-26T07:47:26Z</time>
      </trkpt>
      <trkpt lat="50.41242" lon="3.52053">
        <ele>78.965454</ele>
        <time>2011-06-26T07:47:27Z</time>
      </trkpt>
      <trkpt lat="50.41253" lon="3.52034">
        <ele>80.40747</ele>
        <time>2011-06-26T07:47:32Z</time>
      </trkpt>
      <trkpt lat="50.41259" lon="3.52015">
        <ele>81.849365</ele>
        <time>2011-06-26T07:47:36Z</time>
      </trkpt>
      <trkpt lat="50.41255" lon="3.51998">
        <ele>81.849365</ele>
        <time>2011-06-26T07:47:39Z</time>
      </trkpt>
      <trkpt lat="50.41255" lon="3.51975">
        <ele>80.888183</ele>
        <time>2011-06-26T07:47:43Z</time>
      </trkpt>
      <trkpt lat="50.4126" lon="3.5196">
        <ele>80.888183</ele>
        <time>2011-06-26T07:47:45Z</time>
      </trkpt>
      <trkpt lat="50.41265" lon="3.51935">
        <ele>81.368774</ele>
        <time>2011-06-26T07:47:49Z</time>
      </trkpt>
      <trkpt lat="50.41278" lon="3.51905">
        <ele>82.810791</ele>
        <time>2011-06-26T07:47:55Z</time>
      </trkpt>
      <trkpt lat="50.41281" lon="3.51887">
        <ele>83.291381</ele>
        <time>2011-06-26T07:47:59Z</time>
      </trkpt>
      <trkpt lat="50.41279" lon="3.51867">
        <ele>82.810791</ele>
        <time>2011-06-26T07:48:03Z</time>
      </trkpt>
      <trkpt lat="50.41282" lon="3.51851">
        <ele>83.291381</ele>
        <time>2011-06-26T07:48:06Z</time>
      </trkpt>
      <trkpt lat="50.41283" lon="3.51833">
        <ele>83.291381</ele>
        <time>2011-06-26T07:48:09Z</time>
      </trkpt>
      <trkpt lat="50.41289" lon="3.51835">
        <ele>83.291381</ele>
        <time>2011-06-26T07:48:12Z</time>
      </trkpt>
      <trkpt lat="50.41292" lon="3.51841">
        <ele>84.252685</ele>
        <time>2011-06-26T07:48:14Z</time>
      </trkpt>
      <trkpt lat="50.413" lon="3.51853">
        <ele>86.656005</ele>
        <time>2011-06-26T07:48:18Z</time>
      </trkpt>
      <trkpt lat="50.41308" lon="3.51856">
        <ele>87.136596</ele>
        <time>2011-06-26T07:48:21Z</time>
      </trkpt>
      <trkpt lat="50.41319" lon="3.51835">
        <ele>88.578735</ele>
        <time>2011-06-26T07:48:27Z</time>
      </trkpt>
      <trkpt lat="50.4132" lon="3.51829">
        <ele>88.578735</ele>
        <time>2011-06-26T07:48:28Z</time>
      </trkpt>
      <trkpt lat="50.41325" lon="3.51795">
        <ele>88.098022</ele>
        <time>2011-06-26T07:48:34Z</time>
      </trkpt>
      <trkpt lat="50.41332" lon="3.51769">
        <ele>88.578735</ele>
        <time>2011-06-26T07:48:40Z</time>
      </trkpt>
      <trkpt lat="50.41342" lon="3.51752">
        <ele>89.059326</ele>
        <time>2011-06-26T07:48:46Z</time>
      </trkpt>
      <trkpt lat="50.41344" lon="3.51747">
        <ele>88.578735</ele>
        <time>2011-06-26T07:48:48Z</time>
      </trkpt>
      <trkpt lat="50.41345" lon="3.51743">
        <ele>89.539917</ele>
        <time>2011-06-26T07:48:52Z</time>
      </trkpt>
      <trkpt lat="50.41348" lon="3.51739">
        <ele>83.771972</ele>
        <time>2011-06-26T07:53:58Z</time>
      </trkpt>
      <trkpt lat="50.4135" lon="3.51736">
        <ele>83.771972</ele>
        <time>2011-06-26T07:53:59Z</time>
      </trkpt>
      <trkpt lat="50.41354" lon="3.51731">
        <ele>83.771972</ele>
        <time>2011-06-26T07:54:00Z</time>
      </trkpt>
      <trkpt lat="50.41362" lon="3.51714">
        <ele>84.252685</ele>
        <time>2011-06-26T07:54:04Z</time>
      </trkpt>
      <trkpt lat="50.41372" lon="3.51704">
        <ele>83.771972</ele>
        <time>2011-06-26T07:54:07Z</time>
      </trkpt>
      <trkpt lat="50.41375" lon="3.51702">
        <ele>83.771972</ele>
        <time>2011-06-26T07:54:08Z</time>
      </trkpt>
      <trkpt lat="50.41391" lon="3.51672">
        <ele>83.291381</ele>
        <time>2011-06-26T07:54:13Z</time>
      </trkpt>
      <trkpt lat="50.41401" lon="3.51642">
        <ele>82.330078</ele>
        <time>2011-06-26T07:54:18Z</time>
      </trkpt>
      <trkpt lat="50.41411" lon="3.51631">
        <ele>81.368774</ele>
        <time>2011-06-26T07:54:21Z</time>
      </trkpt>
      <trkpt lat="50.41432" lon="3.51655">
        <ele>85.213989</ele>
        <time>2011-06-26T07:54:27Z</time>
      </trkpt>
      <trkpt lat="50.41448" lon="3.51655">
        <ele>86.175293</ele>
        <time>2011-06-26T07:54:31Z</time>
      </trkpt>
      <trkpt lat="50.41455" lon="3.51646">
        <ele>85.213989</ele>
        <time>2011-06-26T07:54:33Z</time>
      </trkpt>
      <trkpt lat="50.4146" lon="3.51643">
        <ele>85.213989</ele>
        <time>2011-06-26T07:54:34Z</time>
      </trkpt>
      <trkpt lat="50.41467" lon="3.51642">
        <ele>85.213989</ele>
        <time>2011-06-26T07:54:36Z</time>
      </trkpt>
      <trkpt lat="50.41485" lon="3.5165">
        <ele>84.252685</ele>
        <time>2011-06-26T07:54:40Z</time>
      </trkpt>
      <trkpt lat="50.41491" lon="3.51671">
        <ele>85.213989</ele>
        <time>2011-06-26T07:54:43Z</time>
      </trkpt>
      <trkpt lat="50.41494" lon="3.51683">
        <ele>85.213989</ele>
        <time>2011-06-26T07:54:45Z</time>
      </trkpt>
      <trkpt lat="50.41499" lon="3.51693">
        <ele>85.213989</ele>
        <time>2011-06-26T07:54:47Z</time>
      </trkpt>
      <trkpt lat="50.415" lon="3.51718">
        <ele>87.136596</ele>
        <time>2011-06-26T07:54:51Z</time>
      </trkpt>
      <trkpt lat="50.41495" lon="3.51754">
        <ele>88.098022</ele>
        <time>2011-06-26T07:54:55Z</time>
      </trkpt>
      <trkpt lat="50.41495" lon="3.51765">
        <ele>88.578735</ele>
        <time>2011-06-26T07:54:58Z</time>
      </trkpt>
      <trkpt lat="50.41494" lon="3.51781">
        <ele>86.175293</ele>
        <time>2011-06-26T07:55:03Z</time>
      </trkpt>
      <trkpt lat="50.41493" lon="3.518">
        <ele>83.291381</ele>
        <time>2011-06-26T07:55:06Z</time>
      </trkpt>
      <trkpt lat="50.41482" lon="3.51815">
        <ele>78.965454</ele>
        <time>2011-06-26T07:55:11Z</time>
      </trkpt>
      <trkpt lat="50.41477" lon="3.51817">
        <ele>77.042846</ele>
        <time>2011-06-26T07:55:13Z</time>
      </trkpt>
      <trkpt lat="50.41478" lon="3.51829">
        <ele>72.236206</ele>
        <time>2011-06-26T07:55:18Z</time>
      </trkpt>
      <trkpt lat="50.41491" lon="3.51858">
        <ele>64.545654</ele>
        <time>2011-06-26T07:55:26Z</time>
      </trkpt>
      <trkpt lat="50.41495" lon="3.5187">
        <ele>62.142334</ele>
        <time>2011-06-26T07:55:32Z</time>
      </trkpt>
      <trkpt lat="50.41504" lon="3.51893">
        <ele>55.413085</ele>
        <time>2011-06-26T07:55:39Z</time>
      </trkpt>
      <trkpt lat="50.41512" lon="3.51918">
        <ele>49.645263</ele>
        <time>2011-06-26T07:55:43Z</time>
      </trkpt>
      <trkpt lat="50.4152" lon="3.5194">
        <ele>45.319213</ele>
        <time>2011-06-26T07:55:46Z</time>
      </trkpt>
      <trkpt lat="50.41526" lon="3.51944">
        <ele>42.435424</ele>
        <time>2011-06-26T07:55:49Z</time>
      </trkpt>
      <trkpt lat="50.41531" lon="3.51929">
        <ele>36.66748</ele>
        <time>2011-06-26T07:55:55Z</time>
      </trkpt>
      <trkpt lat="50.41541" lon="3.51897">
        <ele>30.418823</ele>
        <time>2011-06-26T07:56:02Z</time>
      </trkpt>
      <trkpt lat="50.41543" lon="3.51887">
        <ele>27.534912</ele>
        <time>2011-06-26T07:56:04Z</time>
      </trkpt>
      <trkpt lat="50.41552" lon="3.5188">
        <ele>24.651001</ele>
        <time>2011-06-26T07:56:08Z</time>
      </trkpt>
      <trkpt lat="50.41561" lon="3.51881">
        <ele>23.689575</ele>
        <time>2011-06-26T07:56:11Z</time>
      </trkpt>
      <trkpt lat="50.41574" lon="3.51884">
        <ele>23.689575</ele>
        <time>2011-06-26T07:56:17Z</time>
      </trkpt>
      <trkpt lat="50.41576" lon="3.51883">
        <ele>23.689575</ele>
        <time>2011-06-26T07:56:18Z</time>
      </trkpt>
      <trkpt lat="50.41583" lon="3.51875">
        <ele>26.573608</ele>
        <time>2011-06-26T07:56:23Z</time>
      </trkpt>
      <trkpt lat="50.41592" lon="3.51869">
        <ele>31.380127</ele>
        <time>2011-06-26T07:56:28Z</time>
      </trkpt>
      <trkpt lat="50.41595" lon="3.5186">
        <ele>32.822265</ele>
        <time>2011-06-26T07:56:30Z</time>
      </trkpt>
      <trkpt lat="50.41601" lon="3.51814">
        <ele>40.032104</ele>
        <time>2011-06-26T07:56:38Z</time>
      </trkpt>
      <trkpt lat="50.41606" lon="3.51774">
        <ele>42.916015</ele>
        <time>2011-06-26T07:56:45Z</time>
      </trkpt>
      <trkpt lat="50.41608" lon="3.51747">
        <ele>43.877319</ele>
        <time>2011-06-26T07:56:50Z</time>
      </trkpt>
      <trkpt lat="50.41611" lon="3.51708">
        <ele>43.877319</ele>
        <time>2011-06-26T07:56:57Z</time>
      </trkpt>
      <trkpt lat="50.41613" lon="3.51702">
        <ele>40.993408</ele>
        <time>2011-06-26T07:56:59Z</time>
      </trkpt>
      <trkpt lat="50.41624" lon="3.517">
        <ele>38.109375</ele>
        <time>2011-06-26T07:57:04Z</time>
      </trkpt>
      <trkpt lat="50.41627" lon="3.517">
        <ele>38.109375</ele>
        <time>2011-06-26T07:57:05Z</time>
      </trkpt>
      <trkpt lat="50.41653" lon="3.51703">
        <ele>36.66748</ele>
        <time>2011-06-26T07:57:12Z</time>
      </trkpt>
      <trkpt lat="50.41671" lon="3.51704">
        <ele>34.744873</ele>
        <time>2011-06-26T07:57:16Z</time>
      </trkpt>
      <trkpt lat="50.4168" lon="3.51675">
        <ele>37.148071</ele>
        <time>2011-06-26T07:57:20Z</time>
      </trkpt>
      <trkpt lat="50.41681" lon="3.51665">
        <ele>37.148071</ele>
        <time>2011-06-26T07:57:21Z</time>
      </trkpt>
      <trkpt lat="50.41691" lon="3.51625">
        <ele>34.744873</ele>
        <time>2011-06-26T07:57:25Z</time>
      </trkpt>
      <trkpt lat="50.41707" lon="3.51552">
        <ele>31.860717</ele>
        <time>2011-06-26T07:57:30Z</time>
      </trkpt>
      <trkpt lat="50.41713" lon="3.51489">
        <ele>31.380127</ele>
        <time>2011-06-26T07:57:34Z</time>
      </trkpt>
      <trkpt lat="50.41713" lon="3.51477">
        <ele>30.418823</ele>
        <time>2011-06-26T07:57:35Z</time>
      </trkpt>
      <trkpt lat="50.41701" lon="3.51431">
        <ele>32.822265</ele>
        <time>2011-06-26T07:57:39Z</time>
      </trkpt>
      <trkpt lat="50.4168" lon="3.51377">
        <ele>32.822265</ele>
        <time>2011-06-26T07:57:45Z</time>
      </trkpt>
      <trkpt lat="50.41666" lon="3.51343">
        <ele>31.380127</ele>
        <time>2011-06-26T07:57:50Z</time>
      </trkpt>
      <trkpt lat="50.41642" lon="3.51298">
        <ele>28.976928</ele>
        <time>2011-06-26T07:57:57Z</time>
      </trkpt>
      <trkpt lat="50.41623" lon="3.51267">
        <ele>25.612304</ele>
        <time>2011-06-26T07:58:02Z</time>
      </trkpt>
      <trkpt lat="50.41601" lon="3.51238">
        <ele>25.612304</ele>
        <time>2011-06-26T07:58:07Z</time>
      </trkpt>
      <trkpt lat="50.41576" lon="3.51211">
        <ele>26.092895</ele>
        <time>2011-06-26T07:58:12Z</time>
      </trkpt>
      <trkpt lat="50.41528" lon="3.5116">
        <ele>29.457519</ele>
        <time>2011-06-26T07:58:21Z</time>
      </trkpt>
      <trkpt lat="50.4151" lon="3.51142">
        <ele>27.534912</ele>
        <time>2011-06-26T07:58:24Z</time>
      </trkpt>
      <trkpt lat="50.41473" lon="3.511">
        <ele>23.208984</ele>
        <time>2011-06-26T07:58:31Z</time>
      </trkpt>
      <trkpt lat="50.41442" lon="3.51067">
        <ele>17.921752</ele>
        <time>2011-06-26T07:58:37Z</time>
      </trkpt>
      <trkpt lat="50.4141" lon="3.51035">
        <ele>15.518432</ele>
        <time>2011-06-26T07:58:43Z</time>
      </trkpt>
      <trkpt lat="50.41377" lon="3.51004">
        <ele>15.037719</ele>
        <time>2011-06-26T07:58:49Z</time>
      </trkpt>
      <trkpt lat="50.41349" lon="3.50974">
        <ele>9.7506104</ele>
        <time>2011-06-26T07:58:54Z</time>
      </trkpt>
      <trkpt lat="50.41317" lon="3.50942">
        <ele>12.634399</ele>
        <time>2011-06-26T07:59:00Z</time>
      </trkpt>
      <trkpt lat="50.41291" lon="3.50932">
        <ele>14.076416</ele>
        <time>2011-06-26T07:59:04Z</time>
      </trkpt>
      <trkpt lat="50.41261" lon="3.50917">
        <ele>16.960449</ele>
        <time>2011-06-26T07:59:09Z</time>
      </trkpt>
      <trkpt lat="50.41222" lon="3.50895">
        <ele>20.805664</ele>
        <time>2011-06-26T07:59:15Z</time>
      </trkpt>
      <trkpt lat="50.41211" lon="3.50887">
        <ele>21.286377</ele>
        <time>2011-06-26T07:59:17Z</time>
      </trkpt>
      <trkpt lat="50.41172" lon="3.50869">
        <ele>25.612304</ele>
        <time>2011-06-26T07:59:23Z</time>
      </trkpt>
      <trkpt lat="50.41168" lon="3.50867">
        <ele>26.092895</ele>
        <time>2011-06-26T07:59:24Z</time>
      </trkpt>
      <trkpt lat="50.41162" lon="3.50861">
        <ele>27.054321</ele>
        <time>2011-06-26T07:59:27Z</time>
      </trkpt>
      <trkpt lat="50.41153" lon="3.50852">
        <ele>28.015502</ele>
        <time>2011-06-26T07:59:30Z</time>
      </trkpt>
      <trkpt lat="50.41131" lon="3.50837">
        <ele>29.457519</ele>
        <time>2011-06-26T07:59:35Z</time>
      </trkpt>
      <trkpt lat="50.41102" lon="3.5082">
        <ele>29.93811</ele>
        <time>2011-06-26T07:59:40Z</time>
      </trkpt>
      <trkpt lat="50.41096" lon="3.50817">
        <ele>29.93811</ele>
        <time>2011-06-26T07:59:41Z</time>
      </trkpt>
      <trkpt lat="50.41069" lon="3.50806">
        <ele>30.899536</ele>
        <time>2011-06-26T07:59:45Z</time>
      </trkpt>
      <trkpt lat="50.41057" lon="3.50801">
        <ele>31.380127</ele>
        <time>2011-06-26T07:59:47Z</time>
      </trkpt>
      <trkpt lat="50.41019" lon="3.50779">
        <ele>31.380127</ele>
        <time>2011-06-26T07:59:54Z</time>
      </trkpt>
      <trkpt lat="50.4099" lon="3.50765">
        <ele>31.380127</ele>
        <time>2011-06-26T07:59:59Z</time>
      </trkpt>
      <trkpt lat="50.40985" lon="3.50761">
        <ele>30.899536</ele>
        <time>2011-06-26T08:00:00Z</time>
      </trkpt>
      <trkpt lat="50.40973" lon="3.50752">
        <ele>30.899536</ele>
        <time>2011-06-26T08:00:04Z</time>
      </trkpt>
      <trkpt lat="50.40966" lon="3.50754">
        <ele>33.302856</ele>
        <time>2011-06-26T08:00:07Z</time>
      </trkpt>
      <trkpt lat="50.40954" lon="3.50751">
        <ele>33.783447</ele>
        <time>2011-06-26T08:00:13Z</time>
      </trkpt>
      <trkpt lat="50.40942" lon="3.50747">
        <ele>35.706054</ele>
        <time>2011-06-26T08:00:17Z</time>
      </trkpt>
      <trkpt lat="50.40918" lon="3.50733">
        <ele>35.225463</ele>
        <time>2011-06-26T08:00:23Z</time>
      </trkpt>
      <trkpt lat="50.40905" lon="3.50725">
        <ele>34.744873</ele>
        <time>2011-06-26T08:00:26Z</time>
      </trkpt>
      <trkpt lat="50.40895" lon="3.50714">
        <ele>33.783447</ele>
        <time>2011-06-26T08:00:29Z</time>
      </trkpt>
      <trkpt lat="50.40874" lon="3.50698">
        <ele>27.534912</ele>
        <time>2011-06-26T08:00:33Z</time>
      </trkpt>
      <trkpt lat="50.40852" lon="3.50675">
        <ele>28.496215</ele>
        <time>2011-06-26T08:00:38Z</time>
      </trkpt>
      <trkpt lat="50.40836" lon="3.50655">
        <ele>28.015502</ele>
        <time>2011-06-26T08:00:42Z</time>
      </trkpt>
      <trkpt lat="50.4081" lon="3.5063">
        <ele>23.208984</ele>
        <time>2011-06-26T08:00:47Z</time>
      </trkpt>
      <trkpt lat="50.40806" lon="3.50623">
        <ele>20.324951</ele>
        <time>2011-06-26T08:00:48Z</time>
      </trkpt>
      <trkpt lat="50.40788" lon="3.50603">
        <ele>16.960449</ele>
        <time>2011-06-26T08:00:52Z</time>
      </trkpt>
      <trkpt lat="50.40771" lon="3.50582">
        <ele>15.518432</ele>
        <time>2011-06-26T08:00:56Z</time>
      </trkpt>
      <trkpt lat="50.40765" lon="3.50573">
        <ele>15.999023</ele>
        <time>2011-06-26T08:00:58Z</time>
      </trkpt>
      <trkpt lat="50.40758" lon="3.50556">
        <ele>14.076416</ele>
        <time>2011-06-26T08:01:02Z</time>
      </trkpt>
      <trkpt lat="50.40759" lon="3.50542">
        <ele>13.115112</ele>
        <time>2011-06-26T08:01:06Z</time>
      </trkpt>
      <trkpt lat="50.40754" lon="3.50527">
        <ele>13.595825</ele>
        <time>2011-06-26T08:01:11Z</time>
      </trkpt>
      <trkpt lat="50.4075" lon="3.50521">
        <ele>13.595825</ele>
        <time>2011-06-26T08:01:15Z</time>
      </trkpt>
      <trkpt lat="50.40748" lon="3.50522">
        <ele>14.076416</ele>
        <time>2011-06-26T08:01:18Z</time>
      </trkpt>
      <trkpt lat="50.40733" lon="3.50536">
        <ele>22.728271</ele>
        <time>2011-06-26T08:06:58Z</time>
      </trkpt>
      <trkpt lat="50.40731" lon="3.50536">
        <ele>22.247558</ele>
        <time>2011-06-26T08:06:59Z</time>
      </trkpt>
      <trkpt lat="50.40724" lon="3.50538">
        <ele>21.766967</ele>
        <time>2011-06-26T08:07:00Z</time>
      </trkpt>
      <trkpt lat="50.40698" lon="3.50551">
        <ele>18.883056</ele>
        <time>2011-06-26T08:07:07Z</time>
      </trkpt>
      <trkpt lat="50.40668" lon="3.50564">
        <ele>15.999023</ele>
        <time>2011-06-26T08:07:15Z</time>
      </trkpt>
      <trkpt lat="50.40646" lon="3.50575">
        <ele>15.037719</ele>
        <time>2011-06-26T08:07:20Z</time>
      </trkpt>
      <trkpt lat="50.40609" lon="3.50592">
        <ele>13.595825</ele>
        <time>2011-06-26T08:07:29Z</time>
      </trkpt>
      <trkpt lat="50.40572" lon="3.5061">
        <ele>13.115112</ele>
        <time>2011-06-26T08:07:37Z</time>
      </trkpt>
      <trkpt lat="50.40511" lon="3.50638">
        <ele>11.673217</ele>
        <time>2011-06-26T08:07:49Z</time>
      </trkpt>
      <trkpt lat="50.40466" lon="3.50658">
        <ele>8.7891846</ele>
        <time>2011-06-26T08:07:58Z</time>
      </trkpt>
      <trkpt lat="50.40452" lon="3.5065">
        <ele>7.8278809</ele>
        <time>2011-06-26T08:08:02Z</time>
      </trkpt>
      <trkpt lat="50.40441" lon="3.50628">
        <ele>6.3858643</ele>
        <time>2011-06-26T08:08:07Z</time>
      </trkpt>
      <trkpt lat="50.40441" lon="3.50595">
        <ele>4.9438477</ele>
        <time>2011-06-26T08:08:13Z</time>
      </trkpt>
      <trkpt lat="50.40441" lon="3.50561">
        <ele>3.982666</ele>
        <time>2011-06-26T08:08:18Z</time>
      </trkpt>
      <trkpt lat="50.40441" lon="3.50539">
        <ele>4.4632568</ele>
        <time>2011-06-26T08:08:21Z</time>
      </trkpt>
      <trkpt lat="50.40438" lon="3.50502">
        <ele>6.8664551</ele>
        <time>2011-06-26T08:08:26Z</time>
      </trkpt>
      <trkpt lat="50.40423" lon="3.50454">
        <ele>9.2698975</ele>
        <time>2011-06-26T08:08:33Z</time>
      </trkpt>
      <trkpt lat="50.40417" lon="3.50443">
        <ele>9.7506104</ele>
        <time>2011-06-26T08:08:35Z</time>
      </trkpt>
      <trkpt lat="50.40393" lon="3.50409">
        <ele>11.192504</ele>
        <time>2011-06-26T08:08:42Z</time>
      </trkpt>
      <trkpt lat="50.40386" lon="3.504">
        <ele>10.231201</ele>
        <time>2011-06-26T08:08:44Z</time>
      </trkpt>
      <trkpt lat="50.4035" lon="3.50371">
        <ele>11.673217</ele>
        <time>2011-06-26T08:08:52Z</time>
      </trkpt>
      <trkpt lat="50.40309" lon="3.50339">
        <ele>10.231201</ele>
        <time>2011-06-26T08:09:00Z</time>
      </trkpt>
      <trkpt lat="50.40277" lon="3.50314">
        <ele>9.7506104</ele>
        <time>2011-06-26T08:09:06Z</time>
      </trkpt>
      <trkpt lat="50.40266" lon="3.50305">
        <ele>8.7891846</ele>
        <time>2011-06-26T08:09:08Z</time>
      </trkpt>
      <trkpt lat="50.40245" lon="3.5029">
        <ele>8.7891846</ele>
        <time>2011-06-26T08:09:12Z</time>
      </trkpt>
      <trkpt lat="50.40222" lon="3.50284">
        <ele>8.7891846</ele>
        <time>2011-06-26T08:09:16Z</time>
      </trkpt>
      <trkpt lat="50.40206" lon="3.50263">
        <ele>10.711792</ele>
        <time>2011-06-26T08:09:20Z</time>
      </trkpt>
      <trkpt lat="50.4021" lon="3.50253">
        <ele>12.153808</ele>
        <time>2011-06-26T08:09:22Z</time>
      </trkpt>
      <trkpt lat="50.40217" lon="3.50248">
        <ele>14.557006</ele>
        <time>2011-06-26T08:09:24Z</time>
      </trkpt>
      <trkpt lat="50.40225" lon="3.50242">
        <ele>16.479736</ele>
        <time>2011-06-26T08:09:27Z</time>
      </trkpt>
      <trkpt lat="50.4024" lon="3.50228">
        <ele>18.402343</ele>
        <time>2011-06-26T08:09:33Z</time>
      </trkpt>
      <trkpt lat="50.40255" lon="3.50212">
        <ele>15.037719</ele>
        <time>2011-06-26T08:09:39Z</time>
      </trkpt>
      <trkpt lat="50.40257" lon="3.5021">
        <ele>14.557006</ele>
        <time>2011-06-26T08:09:40Z</time>
      </trkpt>
      <trkpt lat="50.40275" lon="3.50209">
        <ele>15.999023</ele>
        <time>2011-06-26T08:09:47Z</time>
      </trkpt>
      <trkpt lat="50.40282" lon="3.5021">
        <ele>17.441162</ele>
        <time>2011-06-26T08:09:50Z</time>
      </trkpt>
      <trkpt lat="50.40292" lon="3.50215">
        <ele>18.402343</ele>
        <time>2011-06-26T08:09:54Z</time>
      </trkpt>
      <trkpt lat="50.40311" lon="3.50221">
        <ele>22.247558</ele>
        <time>2011-06-26T08:10:02Z</time>
      </trkpt>
      <trkpt lat="50.40324" lon="3.50217">
        <ele>25.131713</ele>
        <time>2011-06-26T08:10:08Z</time>
      </trkpt>
      <trkpt lat="50.40338" lon="3.50209">
        <ele>25.612304</ele>
        <time>2011-06-26T08:10:14Z</time>
      </trkpt>
      <trkpt lat="50.40361" lon="3.50191">
        <ele>28.015502</ele>
        <time>2011-06-26T08:10:23Z</time>
      </trkpt>
      <trkpt lat="50.40372" lon="3.50184">
        <ele>29.457519</ele>
        <time>2011-06-26T08:10:28Z</time>
      </trkpt>
      <trkpt lat="50.40388" lon="3.50177">
        <ele>32.341552</ele>
        <time>2011-06-26T08:10:34Z</time>
      </trkpt>
      <trkpt lat="50.40403" lon="3.50166">
        <ele>35.225463</ele>
        <time>2011-06-26T08:10:40Z</time>
      </trkpt>
      <trkpt lat="50.40416" lon="3.50155">
        <ele>39.070678</ele>
        <time>2011-06-26T08:10:46Z</time>
      </trkpt>
      <trkpt lat="50.40425" lon="3.50142">
        <ele>40.993408</ele>
        <time>2011-06-26T08:10:52Z</time>
      </trkpt>
      <trkpt lat="50.40427" lon="3.50138">
        <ele>39.551269</ele>
        <time>2011-06-26T08:10:53Z</time>
      </trkpt>
      <trkpt lat="50.40434" lon="3.50115">
        <ele>37.148071</ele>
        <time>2011-06-26T08:10:59Z</time>
      </trkpt>
      <trkpt lat="50.4044" lon="3.50098">
        <ele>32.341552</ele>
        <time>2011-06-26T08:11:05Z</time>
      </trkpt>
      <trkpt lat="50.4044" lon="3.50088">
        <ele>32.341552</ele>
        <time>2011-06-26T08:11:09Z</time>
      </trkpt>
      <trkpt lat="50.40437" lon="3.50069">
        <ele>33.302856</ele>
        <time>2011-06-26T08:11:16Z</time>
      </trkpt>
      <trkpt lat="50.4043" lon="3.50051">
        <ele>34.26416</ele>
        <time>2011-06-26T08:11:22Z</time>
      </trkpt>
      <trkpt lat="50.40422" lon="3.50031">
        <ele>39.551269</ele>
        <time>2011-06-26T08:11:29Z</time>
      </trkpt>
      <trkpt lat="50.40418" lon="3.50019">
        <ele>40.993408</ele>
        <time>2011-06-26T08:11:33Z</time>
      </trkpt>
      <trkpt lat="50.4041" lon="3.50001">
        <ele>45.319213</ele>
        <time>2011-06-26T08:11:39Z</time>
      </trkpt>
      <trkpt lat="50.40399" lon="3.4998">
        <ele>49.645263</ele>
        <time>2011-06-26T08:11:46Z</time>
      </trkpt>
      <trkpt lat="50.40386" lon="3.49962">
        <ele>54.932373</ele>
        <time>2011-06-26T08:11:53Z</time>
      </trkpt>
      <trkpt lat="50.40378" lon="3.49954">
        <ele>57.816528</ele>
        <time>2011-06-26T08:11:58Z</time>
      </trkpt>
      <trkpt lat="50.40368" lon="3.49943">
        <ele>56.374511</ele>
        <time>2011-06-26T08:12:05Z</time>
      </trkpt>
      <trkpt lat="50.40353" lon="3.49937">
        <ele>58.297119</ele>
        <time>2011-06-26T08:12:13Z</time>
      </trkpt>
      <trkpt lat="50.40336" lon="3.49937">
        <ele>58.297119</ele>
        <time>2011-06-26T08:12:21Z</time>
      </trkpt>
      <trkpt lat="50.40323" lon="3.4993">
        <ele>53.971191</ele>
        <time>2011-06-26T08:12:24Z</time>
      </trkpt>
      <trkpt lat="50.403" lon="3.4993">
        <ele>51.087158</ele>
        <time>2011-06-26T08:12:28Z</time>
      </trkpt>
      <trkpt lat="50.4028" lon="3.4995">
        <ele>49.16455</ele>
        <time>2011-06-26T08:12:32Z</time>
      </trkpt>
      <trkpt lat="50.40266" lon="3.49976">
        <ele>45.799926</ele>
        <time>2011-06-26T08:12:36Z</time>
      </trkpt>
      <trkpt lat="50.40256" lon="3.4999">
        <ele>42.916015</ele>
        <time>2011-06-26T08:12:39Z</time>
      </trkpt>
      <trkpt lat="50.40254" lon="3.49995">
        <ele>42.435424</ele>
        <time>2011-06-26T08:12:40Z</time>
      </trkpt>
      <trkpt lat="50.40244" lon="3.5002">
        <ele>40.512817</ele>
        <time>2011-06-26T08:12:46Z</time>
      </trkpt>
      <trkpt lat="50.40241" lon="3.50037">
        <ele>37.148071</ele>
        <time>2011-06-26T08:12:50Z</time>
      </trkpt>
      <trkpt lat="50.4024" lon="3.50039">
        <ele>37.148071</ele>
        <time>2011-06-26T08:12:51Z</time>
      </trkpt>
      <trkpt lat="50.40241" lon="3.50042">
        <ele>36.66748</ele>
        <time>2011-06-26T08:12:54Z</time>
      </trkpt>
      <trkpt lat="50.40238" lon="3.50046">
        <ele>38.109375</ele>
        <time>2011-06-26T08:13:01Z</time>
      </trkpt>
      <trkpt lat="50.40231" lon="3.50057">
        <ele>49.645263</ele>
        <time>2011-06-26T08:13:29Z</time>
      </trkpt>
      <trkpt lat="50.40231" lon="3.50061">
        <ele>49.16455</ele>
        <time>2011-06-26T08:13:30Z</time>
      </trkpt>
      <trkpt lat="50.40227" lon="3.50071">
        <ele>46.76123</ele>
        <time>2011-06-26T08:13:31Z</time>
      </trkpt>
      <trkpt lat="50.4022" lon="3.50092">
        <ele>44.358032</ele>
        <time>2011-06-26T08:13:33Z</time>
      </trkpt>
      <trkpt lat="50.40218" lon="3.5012">
        <ele>41.473999</ele>
        <time>2011-06-26T08:13:36Z</time>
      </trkpt>
      <trkpt lat="50.40229" lon="3.50149">
        <ele>40.993408</ele>
        <time>2011-06-26T08:13:40Z</time>
      </trkpt>
      <trkpt lat="50.40241" lon="3.50178">
        <ele>37.148071</ele>
        <time>2011-06-26T08:13:44Z</time>
      </trkpt>
      <trkpt lat="50.40238" lon="3.50202">
        <ele>35.225463</ele>
        <time>2011-06-26T08:13:47Z</time>
      </trkpt>
      <trkpt lat="50.40248" lon="3.50215">
        <ele>30.418823</ele>
        <time>2011-06-26T08:13:50Z</time>
      </trkpt>
      <trkpt lat="50.40266" lon="3.50243">
        <ele>26.092895</ele>
        <time>2011-06-26T08:13:55Z</time>
      </trkpt>
      <trkpt lat="50.40277" lon="3.50257">
        <ele>25.612304</ele>
        <time>2011-06-26T08:13:58Z</time>
      </trkpt>
      <trkpt lat="50.40301" lon="3.50266">
        <ele>23.208984</ele>
        <time>2011-06-26T08:14:02Z</time>
      </trkpt>
      <trkpt lat="50.40336" lon="3.50285">
        <ele>19.363769</ele>
        <time>2011-06-26T08:14:08Z</time>
      </trkpt>
      <trkpt lat="50.40349" lon="3.50274">
        <ele>18.402343</ele>
        <time>2011-06-26T08:14:11Z</time>
      </trkpt>
      <trkpt lat="50.40369" lon="3.50243">
        <ele>18.883056</ele>
        <time>2011-06-26T08:14:17Z</time>
      </trkpt>
      <trkpt lat="50.40373" lon="3.5024">
        <ele>17.441162</ele>
        <time>2011-06-26T08:14:18Z</time>
      </trkpt>
      <trkpt lat="50.40385" lon="3.5023">
        <ele>16.479736</ele>
        <time>2011-06-26T08:14:21Z</time>
      </trkpt>
      <trkpt lat="50.40407" lon="3.50213">
        <ele>18.402343</ele>
        <time>2011-06-26T08:14:27Z</time>
      </trkpt>
      <trkpt lat="50.40419" lon="3.50205">
        <ele>19.84436</ele>
        <time>2011-06-26T08:14:30Z</time>
      </trkpt>
      <trkpt lat="50.40434" lon="3.50195">
        <ele>22.247558</ele>
        <time>2011-06-26T08:14:34Z</time>
      </trkpt>
      <trkpt lat="50.40449" lon="3.50188">
        <ele>27.054321</ele>
        <time>2011-06-26T08:14:39Z</time>
      </trkpt>
      <trkpt lat="50.40464" lon="3.50169">
        <ele>22.728271</ele>
        <time>2011-06-26T08:14:42Z</time>
      </trkpt>
      <trkpt lat="50.4048" lon="3.5017">
        <ele>20.324951</ele>
        <time>2011-06-26T08:14:46Z</time>
      </trkpt>
      <trkpt lat="50.40481" lon="3.50173">
        <ele>20.324951</ele>
        <time>2011-06-26T08:14:47Z</time>
      </trkpt>
      <trkpt lat="50.40485" lon="3.5018">
        <ele>20.324951</ele>
        <time>2011-06-26T08:14:49Z</time>
      </trkpt>
      <trkpt lat="50.4049" lon="3.50201">
        <ele>21.286377</ele>
        <time>2011-06-26T08:14:54Z</time>
      </trkpt>
      <trkpt lat="50.40494" lon="3.50229">
        <ele>26.092895</ele>
        <time>2011-06-26T08:14:57Z</time>
      </trkpt>
      <trkpt lat="50.40499" lon="3.50253">
        <ele>25.612304</ele>
        <time>2011-06-26T08:14:59Z</time>
      </trkpt>
      <trkpt lat="50.40516" lon="3.50295">
        <ele>24.170288</ele>
        <time>2011-06-26T08:15:03Z</time>
      </trkpt>
      <trkpt lat="50.40519" lon="3.50304">
        <ele>24.651001</ele>
        <time>2011-06-26T08:15:04Z</time>
      </trkpt>
      <trkpt lat="50.40543" lon="3.50338">
        <ele>25.612304</ele>
        <time>2011-06-26T08:15:09Z</time>
      </trkpt>
      <trkpt lat="50.40553" lon="3.50375">
        <ele>28.015502</ele>
        <time>2011-06-26T08:15:13Z</time>
      </trkpt>
      <trkpt lat="50.40559" lon="3.50416">
        <ele>28.976928</ele>
        <time>2011-06-26T08:15:18Z</time>
      </trkpt>
      <trkpt lat="50.40564" lon="3.50434">
        <ele>28.976928</ele>
        <time>2011-06-26T08:15:20Z</time>
      </trkpt>
      <trkpt lat="50.40581" lon="3.50464">
        <ele>28.496215</ele>
        <time>2011-06-26T08:15:25Z</time>
      </trkpt>
      <trkpt lat="50.40592" lon="3.50454">
        <ele>26.092895</ele>
        <time>2011-06-26T08:15:28Z</time>
      </trkpt>
      <trkpt lat="50.40608" lon="3.50451">
        <ele>20.805664</ele>
        <time>2011-06-26T08:15:31Z</time>
      </trkpt>
      <trkpt lat="50.40624" lon="3.50455">
        <ele>18.402343</ele>
        <time>2011-06-26T08:15:34Z</time>
      </trkpt>
      <trkpt lat="50.40649" lon="3.5045">
        <ele>16.960449</ele>
        <time>2011-06-26T08:15:40Z</time>
      </trkpt>
      <trkpt lat="50.40653" lon="3.50449">
        <ele>16.479736</ele>
        <time>2011-06-26T08:15:41Z</time>
      </trkpt>
      <trkpt lat="50.40673" lon="3.50432">
        <ele>16.479736</ele>
        <time>2011-06-26T08:15:46Z</time>
      </trkpt>
      <trkpt lat="50.40677" lon="3.50427">
        <ele>15.999023</ele>
        <time>2011-06-26T08:15:47Z</time>
      </trkpt>
      <trkpt lat="50.40688" lon="3.50397">
        <ele>14.076416</ele>
        <time>2011-06-26T08:15:52Z</time>
      </trkpt>
      <trkpt lat="50.40687" lon="3.50361">
        <ele>15.999023</ele>
        <time>2011-06-26T08:15:57Z</time>
      </trkpt>
      <trkpt lat="50.40678" lon="3.50321">
        <ele>17.441162</ele>
        <time>2011-06-26T08:16:03Z</time>
      </trkpt>
      <trkpt lat="50.40667" lon="3.50301">
        <ele>16.479736</ele>
        <time>2011-06-26T08:16:06Z</time>
      </trkpt>
      <trkpt lat="50.40639" lon="3.5026">
        <ele>13.595825</ele>
        <time>2011-06-26T08:16:12Z</time>
      </trkpt>
      <trkpt lat="50.40622" lon="3.50237">
        <ele>18.883056</ele>
        <time>2011-06-26T08:16:17Z</time>
      </trkpt>
      <trkpt lat="50.40607" lon="3.50218">
        <ele>19.363769</ele>
        <time>2011-06-26T08:16:24Z</time>
      </trkpt>
      <trkpt lat="50.40599" lon="3.50198">
        <ele>20.805664</ele>
        <time>2011-06-26T08:16:30Z</time>
      </trkpt>
      <trkpt lat="50.40591" lon="3.50172">
        <ele>19.84436</ele>
        <time>2011-06-26T08:16:36Z</time>
      </trkpt>
      <trkpt lat="50.40581" lon="3.50135">
        <ele>19.363769</ele>
        <time>2011-06-26T08:16:41Z</time>
      </trkpt>
      <trkpt lat="50.40568" lon="3.50087">
        <ele>20.805664</ele>
        <time>2011-06-26T08:16:47Z</time>
      </trkpt>
      <trkpt lat="50.40567" lon="3.5008">
        <ele>20.805664</ele>
        <time>2011-06-26T08:16:48Z</time>
      </trkpt>
      <trkpt lat="50.40574" lon="3.50056">
        <ele>19.363769</ele>
        <time>2011-06-26T08:16:52Z</time>
      </trkpt>
      <trkpt lat="50.40596" lon="3.50033">
        <ele>18.883056</ele>
        <time>2011-06-26T08:16:58Z</time>
      </trkpt>
      <trkpt lat="50.40602" lon="3.50027">
        <ele>19.363769</ele>
        <time>2011-06-26T08:17:00Z</time>
      </trkpt>
      <trkpt lat="50.4062" lon="3.50012">
        <ele>15.518432</ele>
        <time>2011-06-26T08:17:05Z</time>
      </trkpt>
      <trkpt lat="50.40627" lon="3.50007">
        <ele>15.518432</ele>
        <time>2011-06-26T08:17:09Z</time>
      </trkpt>
      <trkpt lat="50.40634" lon="3.50001">
        <ele>14.557006</ele>
        <time>2011-06-26T08:17:13Z</time>
      </trkpt>
      <trkpt lat="50.40641" lon="3.49998">
        <ele>14.557006</ele>
        <time>2011-06-26T08:17:17Z</time>
      </trkpt>
      <trkpt lat="50.40651" lon="3.49996">
        <ele>18.402343</ele>
        <time>2011-06-26T08:17:24Z</time>
      </trkpt>
      <trkpt lat="50.40653" lon="3.49996">
        <ele>18.883056</ele>
        <time>2011-06-26T08:17:25Z</time>
      </trkpt>
      <trkpt lat="50.40659" lon="3.50003">
        <ele>20.805664</ele>
        <time>2011-06-26T08:17:30Z</time>
      </trkpt>
      <trkpt lat="50.40664" lon="3.50018">
        <ele>25.612304</ele>
        <time>2011-06-26T08:17:37Z</time>
      </trkpt>
      <trkpt lat="50.40665" lon="3.50024">
        <ele>27.054321</ele>
        <time>2011-06-26T08:17:40Z</time>
      </trkpt>
      <trkpt lat="50.40668" lon="3.50045">
        <ele>30.899536</ele>
        <time>2011-06-26T08:17:45Z</time>
      </trkpt>
      <trkpt lat="50.40679" lon="3.50073">
        <ele>33.302856</ele>
        <time>2011-06-26T08:17:50Z</time>
      </trkpt>
      <trkpt lat="50.40688" lon="3.50097">
        <ele>35.225463</ele>
        <time>2011-06-26T08:17:54Z</time>
      </trkpt>
      <trkpt lat="50.40702" lon="3.5013">
        <ele>35.706054</ele>
        <time>2011-06-26T08:17:59Z</time>
      </trkpt>
      <trkpt lat="50.40713" lon="3.50153">
        <ele>38.590087</ele>
        <time>2011-06-26T08:18:03Z</time>
      </trkpt>
      <trkpt lat="50.40719" lon="3.5017">
        <ele>39.070678</ele>
        <time>2011-06-26T08:18:06Z</time>
      </trkpt>
      <trkpt lat="50.40724" lon="3.50182">
        <ele>39.070678</ele>
        <time>2011-06-26T08:18:08Z</time>
      </trkpt>
      <trkpt lat="50.40737" lon="3.5022">
        <ele>38.590087</ele>
        <time>2011-06-26T08:18:13Z</time>
      </trkpt>
      <trkpt lat="50.40751" lon="3.50251">
        <ele>37.148071</ele>
        <time>2011-06-26T08:18:18Z</time>
      </trkpt>
      <trkpt lat="50.40753" lon="3.50256">
        <ele>37.148071</ele>
        <time>2011-06-26T08:18:19Z</time>
      </trkpt>
      <trkpt lat="50.4076" lon="3.50283">
        <ele>36.66748</ele>
        <time>2011-06-26T08:18:23Z</time>
      </trkpt>
      <trkpt lat="50.4077" lon="3.5032">
        <ele>38.109375</ele>
        <time>2011-06-26T08:18:28Z</time>
      </trkpt>
      <trkpt lat="50.40788" lon="3.50355">
        <ele>38.109375</ele>
        <time>2011-06-26T08:18:33Z</time>
      </trkpt>
      <trkpt lat="50.40808" lon="3.5039">
        <ele>38.590087</ele>
        <time>2011-06-26T08:18:38Z</time>
      </trkpt>
      <trkpt lat="50.4081" lon="3.50397">
        <ele>38.590087</ele>
        <time>2011-06-26T08:18:39Z</time>
      </trkpt>
      <trkpt lat="50.40823" lon="3.50424">
        <ele>40.993408</ele>
        <time>2011-06-26T08:18:43Z</time>
      </trkpt>
      <trkpt lat="50.40842" lon="3.50454">
        <ele>41.954711</ele>
        <time>2011-06-26T08:18:48Z</time>
      </trkpt>
      <trkpt lat="50.40862" lon="3.50465">
        <ele>40.512817</ele>
        <time>2011-06-26T08:18:52Z</time>
      </trkpt>
      <trkpt lat="50.40872" lon="3.50454">
        <ele>37.148071</ele>
        <time>2011-06-26T08:18:55Z</time>
      </trkpt>
      <trkpt lat="50.40879" lon="3.50446">
        <ele>34.26416</ele>
        <time>2011-06-26T08:18:58Z</time>
      </trkpt>
      <trkpt lat="50.40892" lon="3.50432">
        <ele>30.418823</ele>
        <time>2011-06-26T08:19:03Z</time>
      </trkpt>
      <trkpt lat="50.40905" lon="3.5042">
        <ele>26.092895</ele>
        <time>2011-06-26T08:19:09Z</time>
      </trkpt>
      <trkpt lat="50.40922" lon="3.50402">
        <ele>24.170288</ele>
        <time>2011-06-26T08:19:15Z</time>
      </trkpt>
      <trkpt lat="50.40925" lon="3.504">
        <ele>24.651001</ele>
        <time>2011-06-26T08:19:16Z</time>
      </trkpt>
      <trkpt lat="50.4094" lon="3.5038">
        <ele>20.805664</ele>
        <time>2011-06-26T08:19:22Z</time>
      </trkpt>
      <trkpt lat="50.40951" lon="3.50366">
        <ele>17.921752</ele>
        <time>2011-06-26T08:19:26Z</time>
      </trkpt>
      <trkpt lat="50.40957" lon="3.50352">
        <ele>18.402343</ele>
        <time>2011-06-26T08:19:29Z</time>
      </trkpt>
      <trkpt lat="50.40953" lon="3.50335">
        <ele>16.479736</ele>
        <time>2011-06-26T08:19:33Z</time>
      </trkpt>
      <trkpt lat="50.40955" lon="3.50311">
        <ele>14.076416</ele>
        <time>2011-06-26T08:19:37Z</time>
      </trkpt>
      <trkpt lat="50.40957" lon="3.50282">
        <ele>15.518432</ele>
        <time>2011-06-26T08:19:41Z</time>
      </trkpt>
      <trkpt lat="50.40952" lon="3.50255">
        <ele>18.883056</ele>
        <time>2011-06-26T08:19:45Z</time>
      </trkpt>
      <trkpt lat="50.40943" lon="3.5023">
        <ele>21.766967</ele>
        <time>2011-06-26T08:19:49Z</time>
      </trkpt>
      <trkpt lat="50.40938" lon="3.50211">
        <ele>21.766967</ele>
        <time>2011-06-26T08:19:52Z</time>
      </trkpt>
      <trkpt lat="50.40934" lon="3.50183">
        <ele>17.921752</ele>
        <time>2011-06-26T08:19:57Z</time>
      </trkpt>
      <trkpt lat="50.40939" lon="3.50168">
        <ele>18.402343</ele>
        <time>2011-06-26T08:20:02Z</time>
      </trkpt>
      <trkpt lat="50.40946" lon="3.50145">
        <ele>21.286377</ele>
        <time>2011-06-26T08:20:08Z</time>
      </trkpt>
      <trkpt lat="50.40946" lon="3.50129">
        <ele>24.170288</ele>
        <time>2011-06-26T08:20:13Z</time>
      </trkpt>
      <trkpt lat="50.40947" lon="3.50123">
        <ele>24.651001</ele>
        <time>2011-06-26T08:20:16Z</time>
      </trkpt>
      <trkpt lat="50.40947" lon="3.50105">
        <ele>24.170288</ele>
        <time>2011-06-26T08:20:25Z</time>
      </trkpt>
      <trkpt lat="50.40947" lon="3.5009">
        <ele>24.170288</ele>
        <time>2011-06-26T08:20:33Z</time>
      </trkpt>
      <trkpt lat="50.40945" lon="3.50087">
        <ele>25.131713</ele>
        <time>2011-06-26T08:20:35Z</time>
      </trkpt>
      <trkpt lat="50.40944" lon="3.50082">
        <ele>25.612304</ele>
        <time>2011-06-26T08:20:38Z</time>
      </trkpt>
      <trkpt lat="50.40944" lon="3.50067">
        <ele>27.534912</ele>
        <time>2011-06-26T08:20:46Z</time>
      </trkpt>
      <trkpt lat="50.40947" lon="3.50056">
        <ele>31.860717</ele>
        <time>2011-06-26T08:20:51Z</time>
      </trkpt>
      <trkpt lat="50.40948" lon="3.50052">
        <ele>33.783447</ele>
        <time>2011-06-26T08:20:53Z</time>
      </trkpt>
      <trkpt lat="50.40949" lon="3.50048">
        <ele>36.186767</ele>
        <time>2011-06-26T08:20:55Z</time>
      </trkpt>
      <trkpt lat="50.40943" lon="3.50036">
        <ele>42.435424</ele>
        <time>2011-06-26T08:21:02Z</time>
      </trkpt>
      <trkpt lat="50.40936" lon="3.50031">
        <ele>44.358032</ele>
        <time>2011-06-26T08:21:10Z</time>
      </trkpt>
      <trkpt lat="50.40936" lon="3.50031">
        <ele>44.358032</ele>
        <time>2011-06-26T08:21:11Z</time>
      </trkpt>
      <trkpt lat="50.40916" lon="3.5005">
        <ele>53.009765</ele>
        <time>2011-06-26T08:21:47Z</time>
      </trkpt>
      <trkpt lat="50.40914" lon="3.50043">
        <ele>52.529174</ele>
        <time>2011-06-26T08:21:52Z</time>
      </trkpt>
      <trkpt lat="50.40912" lon="3.50031">
        <ele>51.087158</ele>
        <time>2011-06-26T08:22:00Z</time>
      </trkpt>
      <trkpt lat="50.4091" lon="3.50021">
        <ele>50.125976</ele>
        <time>2011-06-26T08:22:07Z</time>
      </trkpt>
      <trkpt lat="50.40907" lon="3.50011">
        <ele>51.087158</ele>
        <time>2011-06-26T08:22:13Z</time>
      </trkpt>
      <trkpt lat="50.40904" lon="3.50004">
        <ele>51.567871</ele>
        <time>2011-06-26T08:22:18Z</time>
      </trkpt>
      <trkpt lat="50.40899" lon="3.50007">
        <ele>53.009765</ele>
        <time>2011-06-26T08:22:23Z</time>
      </trkpt>
      <trkpt lat="50.40895" lon="3.50009">
        <ele>54.451782</ele>
        <time>2011-06-26T08:22:27Z</time>
      </trkpt>
      <trkpt lat="50.40885" lon="3.50012">
        <ele>59.739135</ele>
        <time>2011-06-26T08:22:36Z</time>
      </trkpt>
      <trkpt lat="50.40875" lon="3.50015">
        <ele>64.065063</ele>
        <time>2011-06-26T08:22:46Z</time>
      </trkpt>
      <trkpt lat="50.40868" lon="3.50019">
        <ele>66.948974</ele>
        <time>2011-06-26T08:22:53Z</time>
      </trkpt>
      <trkpt lat="50.40859" lon="3.50026">
        <ele>67.910278</ele>
        <time>2011-06-26T08:23:02Z</time>
      </trkpt>
      <trkpt lat="50.40858" lon="3.50027">
        <ele>68.871582</ele>
        <time>2011-06-26T08:23:03Z</time>
      </trkpt>
      <trkpt lat="50.40857" lon="3.5003">
        <ele>71.274902</ele>
        <time>2011-06-26T08:23:06Z</time>
      </trkpt>
      <trkpt lat="50.40852" lon="3.50027">
        <ele>75.60083</ele>
        <time>2011-06-26T08:23:12Z</time>
      </trkpt>
      <trkpt lat="50.40851" lon="3.50015">
        <ele>78.004028</ele>
        <time>2011-06-26T08:23:20Z</time>
      </trkpt>
      <trkpt lat="50.4085" lon="3.50004">
        <ele>77.523437</ele>
        <time>2011-06-26T08:23:27Z</time>
      </trkpt>
      <trkpt lat="50.4085" lon="3.49991">
        <ele>74.158813</ele>
        <time>2011-06-26T08:23:35Z</time>
      </trkpt>
      <trkpt lat="50.4085" lon="3.49984">
        <ele>73.678222</ele>
        <time>2011-06-26T08:23:39Z</time>
      </trkpt>
      <trkpt lat="50.40845" lon="3.49983">
        <ele>75.120239</ele>
        <time>2011-06-26T08:23:45Z</time>
      </trkpt>
      <trkpt lat="50.40838" lon="3.49993">
        <ele>78.484741</ele>
        <time>2011-06-26T08:23:55Z</time>
      </trkpt>
      <trkpt lat="50.40834" lon="3.49997">
        <ele>79.446044</ele>
        <time>2011-06-26T08:23:59Z</time>
      </trkpt>
      <trkpt lat="50.40831" lon="3.50003">
        <ele>81.368774</ele>
        <time>2011-06-26T08:24:03Z</time>
      </trkpt>
      <trkpt lat="50.40827" lon="3.50013">
        <ele>84.252685</ele>
        <time>2011-06-26T08:24:10Z</time>
      </trkpt>
      <trkpt lat="50.40822" lon="3.50018">
        <ele>84.733398</ele>
        <time>2011-06-26T08:24:15Z</time>
      </trkpt>
      <trkpt lat="50.40807" lon="3.50023">
        <ele>84.252685</ele>
        <time>2011-06-26T08:24:20Z</time>
      </trkpt>
      <trkpt lat="50.4079" lon="3.50015">
        <ele>81.849365</ele>
        <time>2011-06-26T08:24:23Z</time>
      </trkpt>
      <trkpt lat="50.40784" lon="3.5001">
        <ele>81.368774</ele>
        <time>2011-06-26T08:24:24Z</time>
      </trkpt>
      <trkpt lat="50.40769" lon="3.49991">
        <ele>79.926635</ele>
        <time>2011-06-26T08:24:28Z</time>
      </trkpt>
      <trkpt lat="50.40766" lon="3.49999">
        <ele>79.926635</ele>
        <time>2011-06-26T08:24:30Z</time>
      </trkpt>
      <trkpt lat="50.40769" lon="3.50014">
        <ele>80.40747</ele>
        <time>2011-06-26T08:24:32Z</time>
      </trkpt>
      <trkpt lat="50.40775" lon="3.50052">
        <ele>80.40747</ele>
        <time>2011-06-26T08:24:36Z</time>
      </trkpt>
      <trkpt lat="50.40779" lon="3.5007">
        <ele>77.523437</ele>
        <time>2011-06-26T08:24:38Z</time>
      </trkpt>
      <trkpt lat="50.40774" lon="3.50078">
        <ele>72.716918</ele>
        <time>2011-06-26T08:24:42Z</time>
      </trkpt>
      <trkpt lat="50.4077" lon="3.50074">
        <ele>71.755493</ele>
        <time>2011-06-26T08:24:43Z</time>
      </trkpt>
      <trkpt lat="50.4074" lon="3.50037">
        <ele>66.948974</ele>
        <time>2011-06-26T08:24:48Z</time>
      </trkpt>
      <trkpt lat="50.40734" lon="3.50027">
        <ele>65.50708</ele>
        <time>2011-06-26T08:24:49Z</time>
      </trkpt>
      <trkpt lat="50.40727" lon="3.5">
        <ele>62.142334</ele>
        <time>2011-06-26T08:24:52Z</time>
      </trkpt>
      <trkpt lat="50.40713" lon="3.49991">
        <ele>59.739135</ele>
        <time>2011-06-26T08:24:56Z</time>
      </trkpt>
      <trkpt lat="50.4071" lon="3.50006">
        <ele>57.816528</ele>
        <time>2011-06-26T08:24:58Z</time>
      </trkpt>
      <trkpt lat="50.40712" lon="3.50044">
        <ele>53.971191</ele>
        <time>2011-06-26T08:25:01Z</time>
      </trkpt>
      <trkpt lat="50.40715" lon="3.50074">
        <ele>51.567871</ele>
        <time>2011-06-26T08:25:03Z</time>
      </trkpt>
      <trkpt lat="50.40723" lon="3.50099">
        <ele>44.838623</ele>
        <time>2011-06-26T08:25:07Z</time>
      </trkpt>
      <trkpt lat="50.40707" lon="3.50076">
        <ele>38.109375</ele>
        <time>2011-06-26T08:25:11Z</time>
      </trkpt>
      <trkpt lat="50.40694" lon="3.50046">
        <ele>33.302856</ele>
        <time>2011-06-26T08:25:14Z</time>
      </trkpt>
      <trkpt lat="50.40689" lon="3.50021">
        <ele>28.976928</ele>
        <time>2011-06-26T08:25:16Z</time>
      </trkpt>
      <trkpt lat="50.40679" lon="3.49969">
        <ele>28.496215</ele>
        <time>2011-06-26T08:25:20Z</time>
      </trkpt>
      <trkpt lat="50.40661" lon="3.49954">
        <ele>29.457519</ele>
        <time>2011-06-26T08:25:24Z</time>
      </trkpt>
      <trkpt lat="50.40631" lon="3.49942">
        <ele>27.054321</ele>
        <time>2011-06-26T08:25:28Z</time>
      </trkpt>
      <trkpt lat="50.40621" lon="3.49926">
        <ele>27.534912</ele>
        <time>2011-06-26T08:25:30Z</time>
      </trkpt>
      <trkpt lat="50.40601" lon="3.49883">
        <ele>30.899536</ele>
        <time>2011-06-26T08:25:36Z</time>
      </trkpt>
      <trkpt lat="50.40581" lon="3.49838">
        <ele>28.976928</ele>
        <time>2011-06-26T08:25:41Z</time>
      </trkpt>
      <trkpt lat="50.40565" lon="3.49803">
        <ele>25.612304</ele>
        <time>2011-06-26T08:25:44Z</time>
      </trkpt>
      <trkpt lat="50.4056" lon="3.49793">
        <ele>23.689575</ele>
        <time>2011-06-26T08:25:45Z</time>
      </trkpt>
      <trkpt lat="50.40552" lon="3.49753">
        <ele>19.84436</ele>
        <time>2011-06-26T08:25:49Z</time>
      </trkpt>
      <trkpt lat="50.40565" lon="3.49744">
        <ele>18.402343</ele>
        <time>2011-06-26T08:25:52Z</time>
      </trkpt>
      <trkpt lat="50.40573" lon="3.49747">
        <ele>18.883056</ele>
        <time>2011-06-26T08:25:56Z</time>
      </trkpt>
      <trkpt lat="50.40581" lon="3.49752">
        <ele>17.441162</ele>
        <time>2011-06-26T08:26:03Z</time>
      </trkpt>
      <trkpt lat="50.40583" lon="3.49753">
        <ele>17.441162</ele>
        <time>2011-06-26T08:26:08Z</time>
      </trkpt>
      <trkpt lat="50.40584" lon="3.49755">
        <ele>19.84436</ele>
        <time>2011-06-26T08:26:12Z</time>
      </trkpt>
      <trkpt lat="50.40588" lon="3.49739">
        <ele>30.899536</ele>
        <time>2011-06-26T08:26:59Z</time>
      </trkpt>
      <trkpt lat="50.40588" lon="3.49739">
        <ele>30.418823</ele>
        <time>2011-06-26T08:27:00Z</time>
      </trkpt>
      <trkpt lat="50.4059" lon="3.49738">
        <ele>30.418823</ele>
        <time>2011-06-26T08:27:04Z</time>
      </trkpt>
      <trkpt lat="50.4059" lon="3.49738">
        <ele>32.341552</ele>
        <time>2011-06-26T08:27:11Z</time>
      </trkpt>
      <trkpt lat="50.40589" lon="3.49739">
        <ele>29.93811</ele>
        <time>2011-06-26T08:27:13Z</time>
      </trkpt>
      <trkpt lat="50.4058" lon="3.49738">
        <ele>-1.785278</ele>
        <time>2011-06-26T08:27:53Z</time>
      </trkpt>
      <trkpt lat="50.40587" lon="3.49748">
        <ele>-15.24365</ele>
        <time>2011-06-26T08:28:03Z</time>
      </trkpt>
      <trkpt lat="50.40587" lon="3.49754">
        <ele>-26.77954</ele>
        <time>2011-06-26T08:28:13Z</time>
      </trkpt>
      <trkpt lat="50.40583" lon="3.49741">
        <ele>-23.41491</ele>
        <time>2011-06-26T08:28:38Z</time>
      </trkpt>
      <trkpt lat="50.40586" lon="3.49732">
        <ele>-17.16638</ele>
        <time>2011-06-26T08:28:40Z</time>
      </trkpt>
      <trkpt lat="50.40589" lon="3.49725">
        <ele>-13.80175</ele>
        <time>2011-06-26T08:28:42Z</time>
      </trkpt>
      <trkpt lat="50.40591" lon="3.49721">
        <ele>-13.32104</ele>
        <time>2011-06-26T08:28:43Z</time>
      </trkpt>
      <trkpt lat="50.40598" lon="3.49709">
        <ele>-10.43725</ele>
        <time>2011-06-26T08:28:45Z</time>
      </trkpt>
      <trkpt lat="50.40612" lon="3.49691">
        <ele>-6.591918</ele>
        <time>2011-06-26T08:28:48Z</time>
      </trkpt>
      <trkpt lat="50.40633" lon="3.49655">
        <ele>-1.785278</ele>
        <time>2011-06-26T08:28:53Z</time>
      </trkpt>
      <trkpt lat="50.40649" lon="3.49636">
        <ele>4.9438477</ele>
        <time>2011-06-26T08:28:57Z</time>
      </trkpt>
      <trkpt lat="50.4066" lon="3.49606">
        <ele>7.347168</ele>
        <time>2011-06-26T08:29:01Z</time>
      </trkpt>
      <trkpt lat="50.40662" lon="3.49597">
        <ele>7.8278809</ele>
        <time>2011-06-26T08:29:02Z</time>
      </trkpt>
      <trkpt lat="50.40674" lon="3.49552">
        <ele>8.7891846</ele>
        <time>2011-06-26T08:29:07Z</time>
      </trkpt>
      <trkpt lat="50.40674" lon="3.4954">
        <ele>9.2698975</ele>
        <time>2011-06-26T08:29:09Z</time>
      </trkpt>
      <trkpt lat="50.40674" lon="3.49523">
        <ele>11.673217</ele>
        <time>2011-06-26T08:29:12Z</time>
      </trkpt>
      <trkpt lat="50.40671" lon="3.49497">
        <ele>16.479736</ele>
        <time>2011-06-26T08:29:16Z</time>
      </trkpt>
      <trkpt lat="50.40657" lon="3.49468">
        <ele>24.170288</ele>
        <time>2011-06-26T08:29:20Z</time>
      </trkpt>
      <trkpt lat="50.40641" lon="3.4944">
        <ele>23.689575</ele>
        <time>2011-06-26T08:29:23Z</time>
      </trkpt>
      <trkpt lat="50.40635" lon="3.49412">
        <ele>21.286377</ele>
        <time>2011-06-26T08:29:27Z</time>
      </trkpt>
      <trkpt lat="50.40632" lon="3.4938">
        <ele>17.921752</ele>
        <time>2011-06-26T08:29:31Z</time>
      </trkpt>
      <trkpt lat="50.40635" lon="3.49352">
        <ele>15.518432</ele>
        <time>2011-06-26T08:29:35Z</time>
      </trkpt>
      <trkpt lat="50.40634" lon="3.49309">
        <ele>15.518432</ele>
        <time>2011-06-26T08:29:40Z</time>
      </trkpt>
      <trkpt lat="50.4064" lon="3.49259">
        <ele>12.634399</ele>
        <time>2011-06-26T08:29:45Z</time>
      </trkpt>
      <trkpt lat="50.40644" lon="3.49233">
        <ele>12.153808</ele>
        <time>2011-06-26T08:29:48Z</time>
      </trkpt>
      <trkpt lat="50.40637" lon="3.49202">
        <ele>15.999023</ele>
        <time>2011-06-26T08:29:52Z</time>
      </trkpt>
      <trkpt lat="50.40618" lon="3.4919">
        <ele>19.84436</ele>
        <time>2011-06-26T08:29:55Z</time>
      </trkpt>
      <trkpt lat="50.406" lon="3.49193">
        <ele>22.728271</ele>
        <time>2011-06-26T08:29:58Z</time>
      </trkpt>
      <trkpt lat="50.40579" lon="3.49207">
        <ele>21.286377</ele>
        <time>2011-06-26T08:30:02Z</time>
      </trkpt>
      <trkpt lat="50.4056" lon="3.49228">
        <ele>25.612304</ele>
        <time>2011-06-26T08:30:06Z</time>
      </trkpt>
      <trkpt lat="50.40543" lon="3.49259">
        <ele>24.651001</ele>
        <time>2011-06-26T08:30:11Z</time>
      </trkpt>
      <trkpt lat="50.40539" lon="3.49266">
        <ele>23.208984</ele>
        <time>2011-06-26T08:30:12Z</time>
      </trkpt>
      <trkpt lat="50.405" lon="3.49301">
        <ele>34.26416</ele>
        <time>2011-06-26T08:30:19Z</time>
      </trkpt>
      <trkpt lat="50.40494" lon="3.49305">
        <ele>35.706054</ele>
        <time>2011-06-26T08:30:20Z</time>
      </trkpt>
      <trkpt lat="50.40477" lon="3.49312">
        <ele>40.512817</ele>
        <time>2011-06-26T08:30:23Z</time>
      </trkpt>
      <trkpt lat="50.4046" lon="3.49302">
        <ele>36.66748</ele>
        <time>2011-06-26T08:30:27Z</time>
      </trkpt>
      <trkpt lat="50.40454" lon="3.49289">
        <ele>35.225463</ele>
        <time>2011-06-26T08:30:29Z</time>
      </trkpt>
      <trkpt lat="50.40447" lon="3.49271">
        <ele>34.744873</ele>
        <time>2011-06-26T08:30:31Z</time>
      </trkpt>
      <trkpt lat="50.40433" lon="3.49243">
        <ele>32.822265</ele>
        <time>2011-06-26T08:30:35Z</time>
      </trkpt>
      <trkpt lat="50.40413" lon="3.49204">
        <ele>24.170288</ele>
        <time>2011-06-26T08:30:41Z</time>
      </trkpt>
      <trkpt lat="50.40412" lon="3.49197">
        <ele>21.766967</ele>
        <time>2011-06-26T08:30:42Z</time>
      </trkpt>
      <trkpt lat="50.40416" lon="3.49154">
        <ele>18.883056</ele>
        <time>2011-06-26T08:30:47Z</time>
      </trkpt>
      <trkpt lat="50.40418" lon="3.49146">
        <ele>18.883056</ele>
        <time>2011-06-26T08:30:48Z</time>
      </trkpt>
      <trkpt lat="50.40435" lon="3.49115">
        <ele>25.131713</ele>
        <time>2011-06-26T08:30:53Z</time>
      </trkpt>
      <trkpt lat="50.40453" lon="3.49091">
        <ele>29.93811</ele>
        <time>2011-06-26T08:30:57Z</time>
      </trkpt>
      <trkpt lat="50.40468" lon="3.49073">
        <ele>29.457519</ele>
        <time>2011-06-26T08:31:00Z</time>
      </trkpt>
      <trkpt lat="50.4048" lon="3.49051">
        <ele>28.496215</ele>
        <time>2011-06-26T08:31:03Z</time>
      </trkpt>
      <trkpt lat="50.40495" lon="3.49022">
        <ele>29.93811</ele>
        <time>2011-06-26T08:31:07Z</time>
      </trkpt>
      <trkpt lat="50.4049" lon="3.48995">
        <ele>34.26416</ele>
        <time>2011-06-26T08:31:11Z</time>
      </trkpt>
      <trkpt lat="50.40482" lon="3.4898">
        <ele>34.26416</ele>
        <time>2011-06-26T08:31:14Z</time>
      </trkpt>
      <trkpt lat="50.40469" lon="3.48969">
        <ele>33.783447</ele>
        <time>2011-06-26T08:31:17Z</time>
      </trkpt>
      <trkpt lat="50.40439" lon="3.48945">
        <ele>37.628662</ele>
        <time>2011-06-26T08:31:23Z</time>
      </trkpt>
      <trkpt lat="50.40429" lon="3.4894">
        <ele>37.148071</ele>
        <time>2011-06-26T08:31:25Z</time>
      </trkpt>
      <trkpt lat="50.40406" lon="3.48925">
        <ele>39.551269</ele>
        <time>2011-06-26T08:31:30Z</time>
      </trkpt>
      <trkpt lat="50.40402" lon="3.48909">
        <ele>33.783447</ele>
        <time>2011-06-26T08:31:34Z</time>
      </trkpt>
      <trkpt lat="50.4041" lon="3.48875">
        <ele>30.418823</ele>
        <time>2011-06-26T08:31:40Z</time>
      </trkpt>
      <trkpt lat="50.40423" lon="3.48849">
        <ele>28.496215</ele>
        <time>2011-06-26T08:31:45Z</time>
      </trkpt>
      <trkpt lat="50.40435" lon="3.4882">
        <ele>27.534912</ele>
        <time>2011-06-26T08:31:50Z</time>
      </trkpt>
      <trkpt lat="50.40446" lon="3.48793">
        <ele>27.534912</ele>
        <time>2011-06-26T08:31:54Z</time>
      </trkpt>
      <trkpt lat="50.40458" lon="3.48761">
        <ele>24.170288</ele>
        <time>2011-06-26T08:31:59Z</time>
      </trkpt>
      <trkpt lat="50.4046" lon="3.48756">
        <ele>23.689575</ele>
        <time>2011-06-26T08:32:00Z</time>
      </trkpt>
      <trkpt lat="50.40467" lon="3.48739">
        <ele>22.728271</ele>
        <time>2011-06-26T08:32:03Z</time>
      </trkpt>
      <trkpt lat="50.40476" lon="3.48721">
        <ele>22.247558</ele>
        <time>2011-06-26T08:32:06Z</time>
      </trkpt>
      <trkpt lat="50.40484" lon="3.48701">
        <ele>20.805664</ele>
        <time>2011-06-26T08:32:09Z</time>
      </trkpt>
      <trkpt lat="50.40497" lon="3.48679">
        <ele>18.883056</ele>
        <time>2011-06-26T08:32:13Z</time>
      </trkpt>
      <trkpt lat="50.40509" lon="3.48666">
        <ele>17.921752</ele>
        <time>2011-06-26T08:32:16Z</time>
      </trkpt>
      <trkpt lat="50.40514" lon="3.48656">
        <ele>19.363769</ele>
        <time>2011-06-26T08:32:18Z</time>
      </trkpt>
      <trkpt lat="50.40528" lon="3.4863">
        <ele>20.324951</ele>
        <time>2011-06-26T08:32:22Z</time>
      </trkpt>
      <trkpt lat="50.40535" lon="3.48616">
        <ele>21.286377</ele>
        <time>2011-06-26T08:32:24Z</time>
      </trkpt>
      <trkpt lat="50.40555" lon="3.4857">
        <ele>21.286377</ele>
        <time>2011-06-26T08:32:30Z</time>
      </trkpt>
      <trkpt lat="50.40576" lon="3.48526">
        <ele>19.363769</ele>
        <time>2011-06-26T08:32:36Z</time>
      </trkpt>
      <trkpt lat="50.40586" lon="3.48504">
        <ele>19.84436</ele>
        <time>2011-06-26T08:32:39Z</time>
      </trkpt>
      <trkpt lat="50.40616" lon="3.48435">
        <ele>23.689575</ele>
        <time>2011-06-26T08:32:49Z</time>
      </trkpt>
      <trkpt lat="50.40633" lon="3.48395">
        <ele>25.612304</ele>
        <time>2011-06-26T08:32:55Z</time>
      </trkpt>
      <trkpt lat="50.4065" lon="3.48356">
        <ele>28.976928</ele>
        <time>2011-06-26T08:33:01Z</time>
      </trkpt>
      <trkpt lat="50.40667" lon="3.48318">
        <ele>31.380127</ele>
        <time>2011-06-26T08:33:07Z</time>
      </trkpt>
      <trkpt lat="50.40685" lon="3.48282">
        <ele>26.573608</ele>
        <time>2011-06-26T08:33:13Z</time>
      </trkpt>
      <trkpt lat="50.40688" lon="3.48276">
        <ele>24.651001</ele>
        <time>2011-06-26T08:33:14Z</time>
      </trkpt>
      <trkpt lat="50.4071" lon="3.48226">
        <ele>21.766967</ele>
        <time>2011-06-26T08:33:22Z</time>
      </trkpt>
      <trkpt lat="50.40729" lon="3.48184">
        <ele>21.286377</ele>
        <time>2011-06-26T08:33:28Z</time>
      </trkpt>
      <trkpt lat="50.40736" lon="3.48171">
        <ele>20.805664</ele>
        <time>2011-06-26T08:33:30Z</time>
      </trkpt>
      <trkpt lat="50.40748" lon="3.48146">
        <ele>20.805664</ele>
        <time>2011-06-26T08:33:34Z</time>
      </trkpt>
      <trkpt lat="50.40754" lon="3.48134">
        <ele>19.363769</ele>
        <time>2011-06-26T08:33:36Z</time>
      </trkpt>
      <trkpt lat="50.40761" lon="3.48122">
        <ele>18.883056</ele>
        <time>2011-06-26T08:33:38Z</time>
      </trkpt>
      <trkpt lat="50.4077" lon="3.48098">
        <ele>17.921752</ele>
        <time>2011-06-26T08:33:42Z</time>
      </trkpt>
      <trkpt lat="50.40777" lon="3.48081">
        <ele>18.883056</ele>
        <time>2011-06-26T08:33:45Z</time>
      </trkpt>
      <trkpt lat="50.4079" lon="3.48046">
        <ele>16.960449</ele>
        <time>2011-06-26T08:33:51Z</time>
      </trkpt>
      <trkpt lat="50.40803" lon="3.48023">
        <ele>19.84436</ele>
        <time>2011-06-26T08:33:55Z</time>
      </trkpt>
      <trkpt lat="50.40816" lon="3.47998">
        <ele>21.766967</ele>
        <time>2011-06-26T08:33:59Z</time>
      </trkpt>
      <trkpt lat="50.40819" lon="3.47992">
        <ele>21.286377</ele>
        <time>2011-06-26T08:34:00Z</time>
      </trkpt>
      <trkpt lat="50.40823" lon="3.4798">
        <ele>22.728271</ele>
        <time>2011-06-26T08:34:02Z</time>
      </trkpt>
      <trkpt lat="50.40826" lon="3.47968">
        <ele>21.766967</ele>
        <time>2011-06-26T08:34:04Z</time>
      </trkpt>
      <trkpt lat="50.40838" lon="3.47943">
        <ele>20.324951</ele>
        <time>2011-06-26T08:34:08Z</time>
      </trkpt>
      <trkpt lat="50.40845" lon="3.47922">
        <ele>16.960449</ele>
        <time>2011-06-26T08:34:12Z</time>
      </trkpt>
      <trkpt lat="50.40868" lon="3.47865">
        <ele>19.363769</ele>
        <time>2011-06-26T08:34:21Z</time>
      </trkpt>
      <trkpt lat="50.4087" lon="3.47859">
        <ele>20.324951</ele>
        <time>2011-06-26T08:34:22Z</time>
      </trkpt>
      <trkpt lat="50.40883" lon="3.47833">
        <ele>21.286377</ele>
        <time>2011-06-26T08:34:27Z</time>
      </trkpt>
      <trkpt lat="50.40888" lon="3.47822">
        <ele>22.728271</ele>
        <time>2011-06-26T08:34:29Z</time>
      </trkpt>
      <trkpt lat="50.409" lon="3.47804">
        <ele>18.883056</ele>
        <time>2011-06-26T08:34:34Z</time>
      </trkpt>
      <trkpt lat="50.40915" lon="3.47785">
        <ele>19.84436</ele>
        <time>2011-06-26T08:34:39Z</time>
      </trkpt>
      <trkpt lat="50.40743" lon="3.47388">
        <ele>31.6</ele>
      </trkpt>
      <trkpt lat="50.4074" lon="3.47387">
        <ele>32</ele>
      </trkpt>
      <trkpt lat="50.40698" lon="3.47111">
        <ele>24</ele>
      </trkpt>
      <trkpt lat="50.40881" lon="3.47086">
        <ele>32</ele>
      </trkpt>
      <trkpt lat="50.40858" lon="3.47084">
        <ele>26.573608</ele>
        <time>2011-06-26T08:44:58Z</time>
      </trkpt>
      <trkpt lat="50.40874" lon="3.47107">
        <ele>31.860717</ele>
        <time>2011-06-26T08:44:54Z</time>
      </trkpt>
      <trkpt lat="50.40891" lon="3.47125">
        <ele>38.109375</ele>
        <time>2011-06-26T08:44:50Z</time>
      </trkpt>
      <trkpt lat="50.40905" lon="3.47147">
        <ele>42.435424</ele>
        <time>2011-06-26T08:44:47Z</time>
      </trkpt>
      <trkpt lat="50.40921" lon="3.47179">
        <ele>47.241821</ele>
        <time>2011-06-26T08:44:42Z</time>
      </trkpt>
      <trkpt lat="50.40934" lon="3.47183">
        <ele>52.048584</ele>
        <time>2011-06-26T08:44:39Z</time>
      </trkpt>
      <trkpt lat="50.40954" lon="3.47194">
        <ele>53.490478</ele>
        <time>2011-06-26T08:44:35Z</time>
      </trkpt>
      <trkpt lat="50.40969" lon="3.47197">
        <ele>48.203369</ele>
        <time>2011-06-26T08:44:29Z</time>
      </trkpt>
      <trkpt lat="50.40973" lon="3.47205">
        <ele>48.68396</ele>
        <time>2011-06-26T08:44:22Z</time>
      </trkpt>
      <trkpt lat="50.4098" lon="3.47208">
        <ele>48.68396</ele>
        <time>2011-06-26T08:44:20Z</time>
      </trkpt>
      <trkpt lat="50.40995" lon="3.47207">
        <ele>47.722534</ele>
        <time>2011-06-26T08:44:17Z</time>
      </trkpt>
      <trkpt lat="50.41003" lon="3.47219">
        <ele>47.241821</ele>
        <time>2011-06-26T08:44:11Z</time>
      </trkpt>
      <trkpt lat="50.41003" lon="3.4722">
        <ele>47.722534</ele>
        <time>2011-06-26T08:44:10Z</time>
      </trkpt>
      <trkpt lat="50.40999" lon="3.47225">
        <ele>48.68396</ele>
        <time>2011-06-26T08:44:04Z</time>
      </trkpt>
      <trkpt lat="50.40991" lon="3.47227">
        <ele>49.16455</ele>
        <time>2011-06-26T08:44:00Z</time>
      </trkpt>
      <trkpt lat="50.40984" lon="3.47231">
        <ele>50.606567</ele>
        <time>2011-06-26T08:43:57Z</time>
      </trkpt>
      <trkpt lat="50.40983" lon="3.47233">
        <ele>51.567871</ele>
        <time>2011-06-26T08:43:56Z</time>
      </trkpt>
      <trkpt lat="50.40963" lon="3.47256">
        <ele>33.783447</ele>
        <time>2011-06-26T08:42:41Z</time>
      </trkpt>
      <trkpt lat="50.40962" lon="3.47257">
        <ele>33.302856</ele>
        <time>2011-06-26T08:42:39Z</time>
      </trkpt>
      <trkpt lat="50.40958" lon="3.47259">
        <ele>35.706054</ele>
        <time>2011-06-26T08:42:33Z</time>
      </trkpt>
      <trkpt lat="50.40955" lon="3.47264">
        <ele>40.512817</ele>
        <time>2011-06-26T08:42:26Z</time>
      </trkpt>
      <trkpt lat="50.4095" lon="3.47265">
        <ele>48.203369</ele>
        <time>2011-06-26T08:42:19Z</time>
      </trkpt>
      <trkpt lat="50.40946" lon="3.4727">
        <ele>49.16455</ele>
        <time>2011-06-26T08:42:11Z</time>
      </trkpt>
      <trkpt lat="50.40942" lon="3.47269">
        <ele>44.838623</ele>
        <time>2011-06-26T08:42:04Z</time>
      </trkpt>
      <trkpt lat="50.40939" lon="3.47272">
        <ele>40.993408</ele>
        <time>2011-06-26T08:41:59Z</time>
      </trkpt>
      <trkpt lat="50.40936" lon="3.47277">
        <ele>38.590087</ele>
        <time>2011-06-26T08:41:54Z</time>
      </trkpt>
      <trkpt lat="50.40914" lon="3.4729">
        <ele>34.744873</ele>
        <time>2011-06-26T08:41:15Z</time>
      </trkpt>
      <trkpt lat="50.40915" lon="3.47291">
        <ele>36.186767</ele>
        <time>2011-06-26T08:41:12Z</time>
      </trkpt>
      <trkpt lat="50.40917" lon="3.47297">
        <ele>38.109375</ele>
        <time>2011-06-26T08:41:08Z</time>
      </trkpt>
      <trkpt lat="50.40918" lon="3.47299">
        <ele>38.590087</ele>
        <time>2011-06-26T08:41:07Z</time>
      </trkpt>
      <trkpt lat="50.40929" lon="3.4731">
        <ele>40.993408</ele>
        <time>2011-06-26T08:41:00Z</time>
      </trkpt>
      <trkpt lat="50.40936" lon="3.47311">
        <ele>40.993408</ele>
        <time>2011-06-26T08:40:58Z</time>
      </trkpt>
      <trkpt lat="50.40958" lon="3.47318">
        <ele>39.070678</ele>
        <time>2011-06-26T08:40:52Z</time>
      </trkpt>
      <trkpt lat="50.40972" lon="3.47319">
        <ele>38.590087</ele>
        <time>2011-06-26T08:40:48Z</time>
      </trkpt>
      <trkpt lat="50.40984" lon="3.47318">
        <ele>39.070678</ele>
        <time>2011-06-26T08:40:44Z</time>
      </trkpt>
      <trkpt lat="50.41001" lon="3.47314">
        <ele>35.706054</ele>
        <time>2011-06-26T08:40:38Z</time>
      </trkpt>
      <trkpt lat="50.41011" lon="3.47313">
        <ele>34.26416</ele>
        <time>2011-06-26T08:40:34Z</time>
      </trkpt>
      <trkpt lat="50.41022" lon="3.47307">
        <ele>31.380127</ele>
        <time>2011-06-26T08:40:30Z</time>
      </trkpt>
      <trkpt lat="50.41035" lon="3.47294">
        <ele>28.976928</ele>
        <time>2011-06-26T08:40:24Z</time>
      </trkpt>
      <trkpt lat="50.4104" lon="3.47293">
        <ele>28.976928</ele>
        <time>2011-06-26T08:40:22Z</time>
      </trkpt>
      <trkpt lat="50.41044" lon="3.47293">
        <ele>26.573608</ele>
        <time>2011-06-26T08:40:20Z</time>
      </trkpt>
      <trkpt lat="50.41049" lon="3.47295">
        <ele>28.976928</ele>
        <time>2011-06-26T08:40:15Z</time>
      </trkpt>
      <trkpt lat="50.41056" lon="3.47286">
        <ele>22.728271</ele>
        <time>2011-06-26T08:40:10Z</time>
      </trkpt>
      <trkpt lat="50.41058" lon="3.47285">
        <ele>23.208984</ele>
        <time>2011-06-26T08:40:08Z</time>
      </trkpt>
      <trkpt lat="50.41059" lon="3.47282">
        <ele>23.689575</ele>
        <time>2011-06-26T08:40:06Z</time>
      </trkpt>
      <trkpt lat="50.41061" lon="3.4728">
        <ele>22.247558</ele>
        <time>2011-06-26T08:40:04Z</time>
      </trkpt>
      <trkpt lat="50.4107" lon="3.47267">
        <ele>20.324951</ele>
        <time>2011-06-26T08:39:57Z</time>
      </trkpt>
      <trkpt lat="50.41081" lon="3.47253">
        <ele>19.363769</ele>
        <time>2011-06-26T08:39:53Z</time>
      </trkpt>
      <trkpt lat="50.41083" lon="3.47226">
        <ele>21.766967</ele>
        <time>2011-06-26T08:39:48Z</time>
      </trkpt>
      <trkpt lat="50.41086" lon="3.47203">
        <ele>21.286377</ele>
        <time>2011-06-26T08:39:45Z</time>
      </trkpt>
      <trkpt lat="50.41082" lon="3.47183">
        <ele>19.363769</ele>
        <time>2011-06-26T08:39:42Z</time>
      </trkpt>
      <trkpt lat="50.41076" lon="3.4716">
        <ele>20.324951</ele>
        <time>2011-06-26T08:39:38Z</time>
      </trkpt>
      <trkpt lat="50.41063" lon="3.4715">
        <ele>24.651001</ele>
        <time>2011-06-26T08:39:35Z</time>
      </trkpt>
      <trkpt lat="50.41054" lon="3.47137">
        <ele>28.496215</ele>
        <time>2011-06-26T08:39:32Z</time>
      </trkpt>
      <trkpt lat="50.41051" lon="3.47114">
        <ele>29.457519</ele>
        <time>2011-06-26T08:39:29Z</time>
      </trkpt>
      <trkpt lat="50.41052" lon="3.47087">
        <ele>34.744873</ele>
        <time>2011-06-26T08:39:25Z</time>
      </trkpt>
      <trkpt lat="50.41056" lon="3.47074">
        <ele>36.186767</ele>
        <time>2011-06-26T08:39:21Z</time>
      </trkpt>
      <trkpt lat="50.41062" lon="3.47069">
        <ele>35.225463</ele>
        <time>2011-06-26T08:39:19Z</time>
      </trkpt>
      <trkpt lat="50.4108" lon="3.47065">
        <ele>32.341552</ele>
        <time>2011-06-26T08:39:16Z</time>
      </trkpt>
      <trkpt lat="50.41087" lon="3.47064">
        <ele>32.341552</ele>
        <time>2011-06-26T08:39:15Z</time>
      </trkpt>
      <trkpt lat="50.41117" lon="3.4706">
        <ele>32.822265</ele>
        <time>2011-06-26T08:39:10Z</time>
      </trkpt>
      <trkpt lat="50.41146" lon="3.4706">
        <ele>33.783447</ele>
        <time>2011-06-26T08:39:05Z</time>
      </trkpt>
      <trkpt lat="50.41178" lon="3.47057">
        <ele>36.66748</ele>
        <time>2011-06-26T08:39:00Z</time>
      </trkpt>
      <trkpt lat="50.41192" lon="3.47054">
        <ele>35.706054</ele>
        <time>2011-06-26T08:38:58Z</time>
      </trkpt>
      <trkpt lat="50.41217" lon="3.47051">
        <ele>36.186767</ele>
        <time>2011-06-26T08:38:54Z</time>
      </trkpt>
      <trkpt lat="50.41261" lon="3.47046">
        <ele>38.109375</ele>
        <time>2011-06-26T08:38:47Z</time>
      </trkpt>
      <trkpt lat="50.41295" lon="3.47041">
        <ele>38.590087</ele>
        <time>2011-06-26T08:38:42Z</time>
      </trkpt>
      <trkpt lat="50.41331" lon="3.47036">
        <ele>39.070678</ele>
        <time>2011-06-26T08:38:37Z</time>
      </trkpt>
      <trkpt lat="50.41373" lon="3.47033">
        <ele>41.473999</ele>
        <time>2011-06-26T08:38:31Z</time>
      </trkpt>
      <trkpt lat="50.41413" lon="3.47028">
        <ele>39.551269</ele>
        <time>2011-06-26T08:38:25Z</time>
      </trkpt>
      <trkpt lat="50.41445" lon="3.47024">
        <ele>42.435424</ele>
        <time>2011-06-26T08:38:20Z</time>
      </trkpt>
      <trkpt lat="50.41464" lon="3.47022">
        <ele>43.877319</ele>
        <time>2011-06-26T08:38:17Z</time>
      </trkpt>
      <trkpt lat="50.41498" lon="3.47019">
        <ele>46.280639</ele>
        <time>2011-06-26T08:38:11Z</time>
      </trkpt>
      <trkpt lat="50.41527" lon="3.47016">
        <ele>50.606567</ele>
        <time>2011-06-26T08:38:07Z</time>
      </trkpt>
      <trkpt lat="50.41535" lon="3.47014">
        <ele>51.087158</ele>
        <time>2011-06-26T08:38:06Z</time>
      </trkpt>
      <trkpt lat="50.41577" lon="3.47009">
        <ele>49.16455</ele>
        <time>2011-06-26T08:38:00Z</time>
      </trkpt>
      <trkpt lat="50.41589" lon="3.47008">
        <ele>46.76123</ele>
        <time>2011-06-26T08:37:58Z</time>
      </trkpt>
      <trkpt lat="50.41602" lon="3.47008">
        <ele>46.280639</ele>
        <time>2011-06-26T08:37:56Z</time>
      </trkpt>
      <trkpt lat="50.41608" lon="3.47007">
        <ele>44.838623</ele>
        <time>2011-06-26T08:37:55Z</time>
      </trkpt>
      <trkpt lat="50.41638" lon="3.47001">
        <ele>42.435424</ele>
        <time>2011-06-26T08:37:49Z</time>
      </trkpt>
      <trkpt lat="50.41661" lon="3.46999">
        <ele>37.148071</ele>
        <time>2011-06-26T08:37:44Z</time>
      </trkpt>
      <trkpt lat="50.41679" lon="3.47001">
        <ele>34.26416</ele>
        <time>2011-06-26T08:37:40Z</time>
      </trkpt>
      <trkpt lat="50.4169" lon="3.47002">
        <ele>30.899536</ele>
        <time>2011-06-26T08:37:37Z</time>
      </trkpt>
      <trkpt lat="50.41696" lon="3.47007">
        <ele>28.496215</ele>
        <time>2011-06-26T08:37:35Z</time>
      </trkpt>
      <trkpt lat="50.41738" lon="3.46994">
        <ele>28.4</ele>
      </trkpt>
      <trkpt lat="50.41853" lon="3.46795">
        <ele>30.8</ele>
      </trkpt>
      <trkpt lat="50.41921" lon="3.466">
        <ele>29.4</ele>
      </trkpt>
      <trkpt lat="50.41974" lon="3.4661">
        <ele>32.3</ele>
      </trkpt>
      <trkpt lat="50.42062" lon="3.46738">
        <ele>36.2</ele>
      </trkpt>
      <trkpt lat="50.4214" lon="3.46831">
        <ele>37</ele>
      </trkpt>
      <trkpt lat="50.42202" lon="3.46839">
        <ele>36.1</ele>
      </trkpt>
      <trkpt lat="50.42316" lon="3.46942">
        <ele>34.4</ele>
      </trkpt>
      <trkpt lat="50.42385" lon="3.46997">
        <ele>31.9</ele>
      </trkpt>
    </trkseg>
  </trk>
</gpx>